TB4455 / OO-JAA 7700 Squawk Report (12th of July, 2018)

Time Lat Lon Altitude Heading Speed Vertical Rate
2018-07-12 07:55:02 GMT 44.795868 -0.762143 800 45 146 -960
2018-07-12 07:54:50 GMT 44.790421 -0.769981 975 45 147 -960
2018-07-12 07:54:40 GMT 44.785534 -0.776948 1,125 45 147 -768
2018-07-12 07:54:28 GMT 44.780041 -0.784719 1,300 45 142 -960
2018-07-12 07:54:18 GMT 44.775105 -0.791753 1,450 45 142 -896
2018-07-12 07:54:07 GMT 44.769974 -0.798994 1,625 45 146 -832
2018-07-12 07:53:54 GMT 44.764400 -0.806892 1,775 45 147 -832
2018-07-12 07:53:45 GMT 44.759537 -0.813773 1,925 45 148 -896
2018-07-12 07:53:34 GMT 44.754135 -0.821555 2,075 45 152 -1024
2018-07-12 07:53:26 GMT 44.750900 -0.826118 2,200 45 154 -960
2018-07-12 07:53:23 GMT 44.748619 -0.829334 2,275 45 155 -960
2018-07-12 07:53:14 GMT 44.744194 -0.835631 2,400 45 155 -896
2018-07-12 07:53:11 GMT 44.742893 -0.837373 2,450 45 156 -896
2018-07-12 07:53:06 GMT 44.740448 -0.840846 2,525 315 169 0
2018-07-12 07:53:01 GMT 44.737492 -0.845143 2,600 46 156 -896
2018-07-12 07:52:56 GMT 44.735275 -0.848432 2,675 45 156 -1024
2018-07-12 07:52:50 GMT 44.731934 -0.852879 2,775 32 156 -896
2018-07-12 07:52:45 GMT 44.729439 -0.855259 2,825 25 157 -640
2018-07-12 07:52:38 GMT 44.724655 -0.858045 2,875 11 158 -64
2018-07-12 07:52:34 GMT 44.722641 -0.858765 2,875 5 158 -64
2018-07-12 07:52:31 GMT 44.719437 -0.859157 2,875 1 160 -64
2018-07-12 07:52:25 GMT 44.715286 -0.858608 2,875 345 162 -128
2018-07-12 07:52:14 GMT 44.708118 -0.854187 2,875 323 165 -64
2018-07-12 07:52:03 GMT 44.702271 -0.846667 2,875 316 166 0
2018-07-12 07:51:52 GMT 44.696228 -0.838296 2,875 315 168 0
2018-07-12 07:51:42 GMT 44.690430 -0.830205 2,900 315 169 0
2018-07-12 07:51:32 GMT 44.684330 -0.821563 2,900 315 169 0
2018-07-12 07:51:20 GMT 44.678509 -0.813390 2,900 315 169 0
2018-07-12 07:51:10 GMT 44.672180 -0.804481 2,875 316 167 512
2018-07-12 07:50:59 GMT 44.666222 -0.795705 2,750 308 169 704
2018-07-12 07:50:48 GMT 44.661659 -0.785388 2,700 293 173 -960
2018-07-12 07:50:40 GMT 44.659927 -0.778198 2,800 283 174 -1024
2018-07-12 07:50:37 GMT 44.659237 -0.773330 2,875 278 174 -960
2018-07-12 07:50:30 GMT 44.658630 -0.766564 2,950 277 174 -1216
2018-07-12 07:50:26 GMT 44.658142 -0.760999 3,075 278 172 -1536
2018-07-12 07:50:20 GMT 44.657608 -0.754774 3,200 277 170 -1472
2018-07-12 07:50:14 GMT 44.657097 -0.749013 3,325 277 169 -1344
2018-07-12 07:50:09 GMT 44.656677 -0.743408 3,450 277 169 -1088
2018-07-12 07:50:04 GMT 44.656265 -0.738177 3,525 277 171 -1024
2018-07-12 07:49:58 GMT 44.655807 -0.732226 3,625 277 172 -1152
2018-07-12 07:49:54 GMT 44.655281 -0.726036 3,725 277 172 -1216
2018-07-12 07:49:49 GMT 44.654846 -0.720912 3,825 277 173 -1216
2018-07-12 07:49:43 GMT 44.654350 -0.714312 3,925 277 173 -1280
2018-07-12 07:49:40 GMT 44.654068 -0.710972 4,000 277 173 -1280
2018-07-12 07:49:37 GMT 44.653885 -0.708749 4,025 276 172 -1280
2018-07-12 07:49:31 GMT 44.653336 -0.701556 4,175 276 173 -1344
2018-07-12 07:49:26 GMT 44.652832 -0.694885 4,300 279 172 -1408
2018-07-12 07:49:21 GMT 44.652237 -0.690111 4,425 283 172 -1472
2018-07-12 07:49:18 GMT 44.651688 -0.686776 4,475 286 170 -1536
2018-07-12 07:49:10 GMT 44.649536 -0.677294 4,700 292 167 -1280
2018-07-12 07:49:03 GMT 44.647842 -0.671801 4,825 298 167 -640
2018-07-12 07:49:00 GMT 44.646667 -0.668424 4,850 300 167 -320
2018-07-12 07:48:54 GMT 44.644062 -0.662194 4,875 302 168 0
2018-07-12 07:48:49 GMT 44.642433 -0.658510 4,875 302 167 0
2018-07-12 07:48:44 GMT 44.640526 -0.654155 4,875 302 168 0
2018-07-12 07:48:39 GMT 44.638008 -0.648327 4,875 302 168 0
2018-07-12 07:48:36 GMT 44.636845 -0.645648 4,875 302 167 0
2018-07-12 07:48:33 GMT 44.636124 -0.644073 4,875 302 167 0
2018-07-12 07:48:28 GMT 44.633495 -0.638011 4,875 302 167 0
2018-07-12 07:48:23 GMT 44.631866 -0.634326 4,875 302 167 0
2018-07-12 07:48:16 GMT 44.629211 -0.628297 4,875 302 168 0
2018-07-12 07:48:13 GMT 44.627380 -0.624128 4,875 302 168 0
2018-07-12 07:48:10 GMT 44.626556 -0.622232 4,875 302 168 0
2018-07-12 07:48:05 GMT 44.624790 -0.618115 4,875 302 168 0
2018-07-12 07:48:02 GMT 44.622894 -0.613730 4,875 302 168 0
2018-07-12 07:47:58 GMT 44.621567 -0.610788 4,875 302 168 0
2018-07-12 07:47:54 GMT 44.619965 -0.607060 4,875 302 168 0
2018-07-12 07:47:49 GMT 44.618225 -0.603042 4,875 302 168 0
2018-07-12 07:47:43 GMT 44.615433 -0.596662 4,875 301 169 0
2018-07-12 07:47:39 GMT 44.614059 -0.593393 4,875 301 169 0
2018-07-12 07:47:32 GMT 44.610535 -0.585218 4,875 302 169 0
2018-07-12 07:47:28 GMT 44.609619 -0.583191 4,875 302 169 0
2018-07-12 07:47:20 GMT 44.606003 -0.574820 4,875 302 169 0
2018-07-12 07:47:17 GMT 44.605099 -0.572897 4,875 302 169 0
2018-07-12 07:47:12 GMT 44.603073 -0.568216 4,875 302 169 0
2018-07-12 07:47:09 GMT 44.601791 -0.565273 4,875 302 169 0
2018-07-12 07:47:06 GMT 44.600719 -0.562848 4,875 302 169 0
2018-07-12 07:47:01 GMT 44.598438 -0.557757 4,875 302 169 0
2018-07-12 07:46:56 GMT 44.595932 -0.552063 4,875 303 169 0
2018-07-12 07:46:52 GMT 44.594238 -0.548205 4,875 303 169 0
2018-07-12 07:46:49 GMT 44.593182 -0.545900 4,875 303 170 64
2018-07-12 07:46:45 GMT 44.591503 -0.542148 4,875 303 170 64
2018-07-12 07:46:41 GMT 44.590027 -0.538919 4,875 303 170 64
2018-07-12 07:46:34 GMT 44.586758 -0.531564 4,875 302 172 0
2018-07-12 07:46:30 GMT 44.585499 -0.528818 4,875 302 172 0
2018-07-12 07:46:25 GMT 44.582794 -0.522766 4,850 302 176 -64
2018-07-12 07:46:19 GMT 44.580963 -0.518450 4,850 301 180 0
2018-07-12 07:46:13 GMT 44.578003 -0.511333 4,875 301 188 -256
2018-07-12 07:46:09 GMT 44.576660 -0.508183 4,875 301 191 -512
2018-07-12 07:46:02 GMT 44.572906 -0.499420 4,975 302 197 -1088
2018-07-12 07:45:56 GMT 44.570343 -0.493469 5,075 301 200 -1152
2018-07-12 07:45:51 GMT 44.567810 -0.487418 5,175 298 202 -1216
2018-07-12 07:45:40 GMT 44.563202 -0.473589 5,375 297 208 -1152
2018-07-12 07:45:33 GMT 44.560081 -0.465646 5,525 320 216 -896
2018-07-12 07:45:29 GMT 44.557251 -0.460706 5,600 317 214 -832
2018-07-12 07:45:26 GMT 44.556541 -0.459684 5,600 320 216 -896
2018-07-12 07:45:16 GMT 44.548351 -0.450841 5,775 326 223 -1024
2018-07-12 07:45:05 GMT 44.538342 -0.440994 5,950 326 226 -1024
2018-07-12 07:44:53 GMT 44.528893 -0.431950 6,150 326 228 -1152
2018-07-12 07:44:43 GMT 44.518707 -0.422254 6,350 326 230 -1152
2018-07-12 07:44:32 GMT 44.508781 -0.412657 6,575 326 230 -1152
2018-07-12 07:44:25 GMT 44.503738 -0.407671 6,675 325 229 -1216
2018-07-12 07:44:20 GMT 44.498474 -0.402374 6,800 326 227 -1216
2018-07-12 07:44:09 GMT 44.487411 -0.393297 7,025 344 228 -1024
2018-07-12 07:43:57 GMT 44.475822 -0.390484 7,225 4 235 -960
2018-07-12 07:43:49 GMT 44.468002 -0.391957 7,375 18 240 -960
2018-07-12 07:43:46 GMT 44.463638 -0.394004 7,450 27 242 -960
2018-07-12 07:43:41 GMT 44.459564 -0.396881 7,525 37 246 -960
2018-07-12 07:43:34 GMT 44.453018 -0.404140 7,650 52 252 -1024
2018-07-12 07:43:23 GMT 44.445984 -0.420495 7,875 76 258 -896
2018-07-12 07:43:12 GMT 44.444641 -0.440107 8,000 100 257 -64
2018-07-12 07:43:03 GMT 44.446632 -0.450975 8,000 114 255 -128
2018-07-12 07:43:00 GMT 44.448715 -0.456587 8,000 125 252 -128
2018-07-12 07:42:53 GMT 44.452698 -0.463845 8,000 145 247 -64
2018-07-12 07:42:49 GMT 44.458145 -0.470319 7,975 145 247 -64
2018-07-12 07:42:37 GMT 44.469040 -0.480652 8,000 146 249 0
2018-07-12 07:42:25 GMT 44.480026 -0.490919 8,000 146 247 0
2018-07-12 07:42:21 GMT 44.483921 -0.494586 8,000 146 249 0
2018-07-12 07:42:13 GMT 44.490532 -0.500749 8,000 145 249 0
2018-07-12 07:42:03 GMT 44.500774 -0.510529 8,000 145 250 0
2018-07-12 07:41:53 GMT 44.511978 -0.521654 7,975 142 249 64
2018-07-12 07:41:41 GMT 44.522141 -0.532904 7,975 144 247 -128
2018-07-12 07:41:38 GMT 44.523605 -0.534406 7,975 147 246 -128
2018-07-12 07:41:32 GMT 44.529217 -0.539201 8,000 156 241 -192
2018-07-12 07:41:28 GMT 44.535049 -0.542319 8,000 166 239 -192
2018-07-12 07:41:22 GMT 44.540577 -0.543756 8,000 182 236 -192
2018-07-12 07:41:17 GMT 44.546127 -0.543758 8,000 194 233 -256
2018-07-12 07:41:11 GMT 44.552448 -0.541747 8,000 201 232 -192
2018-07-12 07:41:08 GMT 44.555603 -0.539834 8,000 212 232 -192
2018-07-12 07:41:05 GMT 44.558125 -0.537727 8,000 218 231 -192
2018-07-12 07:41:02 GMT 44.561050 -0.534930 8,000 223 230 -192
2018-07-12 07:40:56 GMT 44.564922 -0.529755 8,000 234 229 -128
2018-07-12 07:40:52 GMT 44.568283 -0.523616 8,000 242 228 -64
2018-07-12 07:40:45 GMT 44.571301 -0.515085 8,000 254 227 -64
2018-07-12 07:40:40 GMT 44.572678 -0.508641 8,000 260 227 -64
2018-07-12 07:40:35 GMT 44.573395 -0.500012 8,000 272 227 -64
2018-07-12 07:40:32 GMT 44.573273 -0.495039 8,000 278 226 -64
2018-07-12 07:40:25 GMT 44.571808 -0.484903 8,000 290 226 0
2018-07-12 07:40:20 GMT 44.570511 -0.480049 8,000 300 226 64
2018-07-12 07:40:16 GMT 44.567963 -0.473655 8,000 309 226 0
2018-07-12 07:40:13 GMT 44.566414 -0.470670 8,000 311 226 0
2018-07-12 07:40:03 GMT 44.558258 -0.460379 8,000 332 227 64
2018-07-12 07:40:00 GMT 44.555740 -0.458352 8,000 338 229 128
2018-07-12 07:39:51 GMT 44.547001 -0.454526 8,000 356 235 0
2018-07-12 07:39:45 GMT 44.538715 -0.453454 8,000 357 237 0
2018-07-12 07:39:40 GMT 44.534897 -0.453119 7,975 357 237 0
2018-07-12 07:39:31 GMT 44.523491 -0.452114 7,975 357 238 0
2018-07-12 07:39:25 GMT 44.517654 -0.451617 7,975 357 238 0
2018-07-12 07:39:22 GMT 44.513390 -0.451243 7,975 357 239 -64
2018-07-12 07:39:19 GMT 44.511154 -0.451042 8,000 357 240 0
2018-07-12 07:39:10 GMT 44.500401 -0.450171 8,000 357 239 0
2018-07-12 07:39:05 GMT 44.495773 -0.449786 8,000 357 239 0
2018-07-12 07:39:01 GMT 44.492111 -0.449524 8,000 357 239 0
2018-07-12 07:38:58 GMT 44.487785 -0.449100 8,000 357 238 0
2018-07-12 07:38:54 GMT 44.484386 -0.448832 8,000 357 238 0
2018-07-12 07:38:48 GMT 44.475266 -0.448085 8,000 357 237 0
2018-07-12 07:38:36 GMT 44.461853 -0.446908 8,000 357 238 0
2018-07-12 07:38:28 GMT 44.454594 -0.446353 8,000 357 238 0
2018-07-12 07:38:24 GMT 44.449429 -0.445951 8,000 357 239 0
2018-07-12 07:38:13 GMT 44.436672 -0.445013 8,000 358 240 64
2018-07-12 07:38:05 GMT 44.430130 -0.444619 7,975 358 241 0
2018-07-12 07:38:01 GMT 44.424335 -0.444209 8,000 358 241 0
2018-07-12 07:37:55 GMT 44.418777 -0.443835 8,000 358 241 64
2018-07-12 07:37:50 GMT 44.411858 -0.443406 7,975 358 241 0
2018-07-12 07:37:43 GMT 44.405640 -0.442919 7,975 357 240 0
2018-07-12 07:37:38 GMT 44.398872 -0.442334 7,975 356 238 0
2018-07-12 07:37:26 GMT 44.386917 -0.441415 8,000 4 238 256
2018-07-12 07:37:16 GMT 44.374512 -0.444881 8,000 23 244 256
2018-07-12 07:37:05 GMT 44.364532 -0.452663 8,000 42 249 192
2018-07-12 07:36:59 GMT 44.359222 -0.459660 8,000 154 242 -128
2018-07-12 07:36:55 GMT 44.355927 -0.465938 8,000 59 254 192
2018-07-12 07:36:44 GMT 44.350983 -0.481371 8,000 78 257 128
2018-07-12 07:36:33 GMT 44.349804 -0.498270 8,000 96 256 64
2018-07-12 07:36:28 GMT 44.350643 -0.506443 8,000 154 242 -128
2018-07-12 07:36:22 GMT 44.352833 -0.515420 8,000 117 252 -64
2018-07-12 07:36:12 GMT 44.359406 -0.529044 8,000 135 247 -64
2018-07-12 07:36:01 GMT 44.369778 -0.539737 8,000 154 242 -128
2018-07-12 07:35:55 GMT 44.376022 -0.542973 8,000 169 238 -128
2018-07-12 07:35:52 GMT 44.379959 -0.544150 8,000 173 238 -128
2018-07-12 07:35:41 GMT 44.391266 -0.545393 8,000 176 240 -64
2018-07-12 07:35:31 GMT 44.402802 -0.546374 8,000 176 239 0
2018-07-12 07:35:24 GMT 44.410835 -0.547039 8,000 176 238 64
2018-07-12 07:35:20 GMT 44.414337 -0.547355 8,000 176 238 0
2018-07-12 07:35:11 GMT 44.425873 -0.548446 8,000 176 237 -64
2018-07-12 07:35:00 GMT 44.437317 -0.549447 8,000 176 239 128
2018-07-12 07:34:53 GMT 44.445145 -0.550101 7,975 176 238 1024
2018-07-12 07:34:50 GMT 44.449127 -0.550428 7,925 176 238 1024
2018-07-12 07:34:43 GMT 44.455853 -0.550991 7,750 176 240 1088
2018-07-12 07:34:38 GMT 44.460709 -0.551409 7,750 176 240 1088
2018-07-12 07:34:34 GMT 44.466045 -0.551795 7,675 177 240 1024
2018-07-12 07:34:28 GMT 44.471786 -0.552194 7,575 177 239 1088
2018-07-12 07:34:21 GMT 44.480431 -0.552666 7,450 177 238 1024
2018-07-12 07:34:16 GMT 44.486481 -0.553001 7,375 177 237 1024
2018-07-12 07:34:10 GMT 44.491837 -0.553336 7,275 177 236 1024
2018-07-12 07:34:05 GMT 44.498291 -0.553632 7,175 177 235 1024
2018-07-12 07:34:01 GMT 44.502075 -0.553872 7,125 178 234 1024
2018-07-12 07:33:58 GMT 44.505981 -0.554025 7,050 178 234 1024
2018-07-12 07:33:52 GMT 44.511520 -0.554286 6,975 178 234 1024
2018-07-12 07:33:47 GMT 44.517242 -0.554548 6,900 178 236 1024
2018-07-12 07:33:41 GMT 44.523354 -0.554743 6,800 178 237 1088
2018-07-12 07:33:37 GMT 44.528332 -0.554877 6,725 178 238 1088
2018-07-12 07:33:32 GMT 44.534683 -0.555137 6,625 178 237 1024
2018-07-12 07:33:26 GMT 44.540157 -0.555345 6,550 178 237 1024
2018-07-12 07:33:20 GMT 44.547501 -0.555594 6,425 178 238 1024
2018-07-12 07:33:16 GMT 44.551712 -0.555790 6,350 178 238 1088
2018-07-12 07:33:10 GMT 44.558872 -0.556015 6,250 178 239 1024
2018-07-12 07:33:05 GMT 44.563202 -0.556149 6,175 178 239 1024
2018-07-12 07:33:01 GMT 44.567623 -0.556283 6,125 178 240 1024
2018-07-12 07:32:57 GMT 44.572723 -0.556444 6,050 178 240 1024
2018-07-12 07:32:54 GMT 44.575069 -0.556484 6,000 178 240 1024
2018-07-12 07:32:51 GMT 44.579075 -0.556618 5,950 178 240 1024
2018-07-12 07:32:47 GMT 44.583031 -0.556752 5,900 178 239 1024
2018-07-12 07:32:44 GMT 44.586365 -0.556902 5,850 178 238 1024
2018-07-12 07:32:40 GMT 44.590668 -0.557098 5,775 178 237 1088
2018-07-12 07:32:36 GMT 44.594696 -0.557229 5,725 178 236 1024
2018-07-12 07:32:33 GMT 44.597992 -0.557360 5,650 178 235 1024
2018-07-12 07:32:26 GMT 44.607239 -0.557687 5,525 178 235 1024
2018-07-12 07:32:21 GMT 44.612125 -0.557824 5,450 178 236 1024
2018-07-12 07:32:16 GMT 44.617355 -0.558079 5,325 178 235 960
2018-07-12 07:32:13 GMT 44.620514 -0.558145 5,325 178 235 1024
2018-07-12 07:32:09 GMT 44.624836 -0.558360 5,250 178 235 1024
2018-07-12 07:32:04 GMT 44.630936 -0.558561 5,150 178 235 1024
2018-07-12 07:32:01 GMT 44.634750 -0.558733 5,100 177 235 1024
2018-07-12 07:31:53 GMT 44.642624 -0.559256 5,000 172 237 960
2018-07-12 07:31:49 GMT 44.646111 -0.559968 4,950 166 239 960
2018-07-12 07:31:45 GMT 44.651779 -0.562199 4,900 149 241 192
2018-07-12 07:31:42 GMT 44.654163 -0.563786 4,900 149 241 192
2018-07-12 07:31:39 GMT 44.656536 -0.565729 4,900 145 240 64
2018-07-12 07:31:34 GMT 44.660961 -0.570083 4,900 142 239 0
2018-07-12 07:31:29 GMT 44.665924 -0.575344 4,875 142 239 -64
2018-07-12 07:31:23 GMT 44.670689 -0.580400 4,900 142 239 -64
2018-07-12 07:31:19 GMT 44.673855 -0.583816 4,900 142 239 64
2018-07-12 07:31:11 GMT 44.681629 -0.592123 4,900 142 239 512
2018-07-12 07:31:08 GMT 44.683548 -0.594177 4,875 142 239 704
2018-07-12 07:31:05 GMT 44.686523 -0.597382 4,825 142 239 1024
2018-07-12 07:31:02 GMT 44.688705 -0.599693 4,800 142 239 1024
2018-07-12 07:30:58 GMT 44.693298 -0.604575 4,700 142 239 1024
2018-07-12 07:30:53 GMT 44.697689 -0.609272 4,625 142 239 1024
2018-07-12 07:30:49 GMT 44.700436 -0.612220 4,575 142 239 1024
2018-07-12 07:30:46 GMT 44.703232 -0.615234 4,525 142 238 1024
2018-07-12 07:30:39 GMT 44.709606 -0.622067 4,400 142 238 1024
2018-07-12 07:30:35 GMT 44.712433 -0.625109 4,350 142 238 1024
2018-07-12 07:30:29 GMT 44.718361 -0.631513 4,225 142 239 1024
2018-07-12 07:30:26 GMT 44.722828 -0.636336 4,150 142 239 1024
2018-07-12 07:30:18 GMT 44.727669 -0.641494 4,050 142 239 1024
2018-07-12 07:30:12 GMT 44.732666 -0.646951 3,975 142 238 960
2018-07-12 07:30:09 GMT 44.736282 -0.650806 3,900 142 238 960
2018-07-12 07:30:01 GMT 44.743450 -0.658577 3,775 142 238 1024
2018-07-12 07:29:58 GMT 44.745453 -0.660720 3,725 142 238 1024
2018-07-12 07:29:51 GMT 44.751736 -0.667486 3,600 142 237 1088
2018-07-12 07:29:48 GMT 44.754295 -0.670233 3,550 142 237 1088
2018-07-12 07:29:38 GMT 44.763519 -0.680237 3,375 142 232 1024
2018-07-12 07:29:27 GMT 44.772079 -0.689392 3,200 143 231 960
2018-07-12 07:29:16 GMT 44.781509 -0.699267 3,025 143 231 1024
2018-07-12 07:29:06 GMT 44.790115 -0.708160 2,850 139 229 1024
2018-07-12 07:28:55 GMT 44.797638 -0.719203 2,675 119 220 1088
2018-07-12 07:28:45 GMT 44.801685 -0.733002 2,500 97 207 960
2018-07-12 07:28:34 GMT 44.801826 -0.747137 2,300 74 199 832
2018-07-12 07:28:22 GMT 44.796936 -0.760607 2,075 48 195 1024
2018-07-12 07:28:14 GMT 44.791763 -0.768258 1,950 45 194 768
2018-07-12 07:28:03 GMT 44.785023 -0.777953 1,900 45 192 0
2018-07-12 07:27:54 GMT 44.779064 -0.786527 1,900 45 189 64
2018-07-12 07:27:42 GMT 44.772125 -0.796107 1,875 43 185 128
2018-07-12 07:27:33 GMT 44.766174 -0.803964 1,875 43 182 -128
2018-07-12 07:27:22 GMT 44.759857 -0.812465 1,900 44 190 -896
2018-07-12 07:27:12 GMT 44.753227 -0.821496 2,075 44 192 -1088
2018-07-12 07:27:02 GMT 44.746719 -0.830579 2,275 46 194 -832
2018-07-12 07:26:52 GMT 44.739960 -0.840588 2,375 48 195 128
2018-07-12 07:26:41 GMT 44.733768 -0.850704 2,375 42 193 -64
2018-07-12 07:26:31 GMT 44.726761 -0.857915 2,350 19 196 -128
2018-07-12 07:26:20 GMT 44.717377 -0.859549 2,350 347 206 -64
2018-07-12 07:26:10 GMT 44.708351 -0.854053 2,350 322 220 -640
2018-07-12 07:26:00 GMT 44.700436 -0.844139 2,525 317 222 -1344
2018-07-12 07:25:50 GMT 44.692757 -0.833889 2,775 317 222 -1664
2018-07-12 07:25:39 GMT 44.684921 -0.823451 3,075 316 220 -1728
2018-07-12 07:25:28 GMT 44.677578 -0.812854 3,350 313 219 -1408
2018-07-12 07:25:24 GMT 44.673901 -0.807160 3,700 339 221 -1280
2018-07-12 07:25:18 GMT 44.670502 -0.802203 3,550 320 219 -1216
2018-07-12 07:25:12 GMT 44.664730 -0.796040 3,700 335 221 -1280
2018-07-12 07:25:08 GMT 44.661804 -0.793893 3,750 339 221 -1280
2018-07-12 07:25:02 GMT 44.654755 -0.790362 3,900 352 224 -1280
2018-07-12 07:24:57 GMT 44.651321 -0.789642 3,975 357 226 -1344
2018-07-12 07:24:50 GMT 44.642990 -0.789315 4,150 0 230 -1408
2018-07-12 07:24:47 GMT 44.640335 -0.789381 4,200 0 230 -1408
2018-07-12 07:24:37 GMT 44.629353 -0.789609 4,450 0 230 -1472
2018-07-12 07:24:27 GMT 44.617950 -0.789969 4,700 1 231 -1344
2018-07-12 07:24:16 GMT 44.606915 -0.790346 4,925 1 232 -1344
2018-07-12 07:24:05 GMT 44.595566 -0.790885 5,150 1 234 -1408
2018-07-12 07:24:00 GMT 44.589294 -0.791146 5,275 1 235 -1536
2018-07-12 07:23:55 GMT 44.584194 -0.791351 5,400 1 235 -1536
2018-07-12 07:23:45 GMT 44.573364 -0.791800 5,650 1 234 -1472
2018-07-12 07:23:35 GMT 44.561943 -0.792154 5,875 1 236 -1152
2018-07-12 07:23:32 GMT 44.559219 -0.792258 5,925 1 236 -1088
2018-07-12 07:23:24 GMT 44.550568 -0.792585 6,075 1 239 -1152
2018-07-12 07:23:16 GMT 44.542328 -0.792912 6,225 1 240 -1216
2018-07-12 07:23:13 GMT 44.538853 -0.793092 6,275 2 243 -1024
2018-07-12 07:23:10 GMT 44.535049 -0.793304 6,325 2 245 -960
2018-07-12 07:23:07 GMT 44.531433 -0.793566 6,375 2 247 -960
2018-07-12 07:23:03 GMT 44.527451 -0.793762 6,425 1 248 -960
2018-07-12 07:22:58 GMT 44.520557 -0.794097 6,525 1 250 -1024
2018-07-12 07:22:52 GMT 44.514771 -0.794351 6,625 1 252 -1472
2018-07-12 07:22:43 GMT 44.503197 -0.794834 6,800 1 256 -448
2018-07-12 07:22:38 GMT 44.497101 -0.795070 6,825 1 264 -320
2018-07-12 07:22:32 GMT 44.490784 -0.795332 6,900 1 268 -320
2018-07-12 07:22:28 GMT 44.483963 -0.795528 6,875 1 274 -640
2018-07-12 07:22:22 GMT 44.477871 -0.795705 6,950 1 277 -1536
2018-07-12 07:22:16 GMT 44.469398 -0.795839 7,100 1 278 -1856
2018-07-12 07:22:10 GMT 44.462692 -0.796040 7,275 1 278 -1856
2018-07-12 07:22:04 GMT 44.454967 -0.796308 7,450 1 278 -1792
2018-07-12 07:22:00 GMT 44.450077 -0.796509 7,600 1 279 -768
2018-07-12 07:21:57 GMT 44.445694 -0.796705 7,600 1 279 -768
2018-07-12 07:21:53 GMT 44.441528 -0.796836 7,625 1 283 -128
2018-07-12 07:21:50 GMT 44.437454 -0.797032 7,625 2 284 -128
2018-07-12 07:21:44 GMT 44.427017 -0.797490 7,650 1 289 -64
2018-07-12 07:21:40 GMT 44.423676 -0.797686 7,625 1 292 64
2018-07-12 07:21:36 GMT 44.418564 -0.797916 7,625 1 305 -384
2018-07-12 07:21:30 GMT 44.409718 -0.798318 7,650 1 304 -384
2018-07-12 07:21:26 GMT 44.404366 -0.798518 7,675 1 315 -384
2018-07-12 07:21:19 GMT 44.393284 -0.798920 7,700 1 319 -384
2018-07-12 07:21:11 GMT 44.380554 -0.799386 7,750 1 331 -384
2018-07-12 07:21:07 GMT 44.376892 -0.799517 7,775 1 335 -448
2018-07-12 07:21:03 GMT 44.369843 -0.799779 7,800 1 342 -1024
2018-07-12 07:20:59 GMT 44.363022 -0.799975 7,900 1 347 -1856
2018-07-12 07:20:50 GMT 44.349106 -0.800563 8,150 1 351 -1984
2018-07-12 07:20:47 GMT 44.342403 -0.800863 8,275 1 381 -3328
2018-07-12 07:20:40 GMT 44.332439 -0.801198 8,500 1 360 -2240
2018-07-12 07:20:37 GMT 44.328392 -0.801399 8,600 1 364 -2176
2018-07-12 07:20:26 GMT 44.309326 -0.802133 8,975 1 374 -2496
2018-07-12 07:20:15 GMT 44.288223 -0.802917 9,525 1 381 -3328
2018-07-12 07:20:07 GMT 44.275646 -0.803342 9,925 1 384 -3840
2018-07-12 07:20:04 GMT 44.268200 -0.803610 10,175 1 385 -3392
2018-07-12 07:19:57 GMT 44.256794 -0.804079 10,525 1 386 -3328
2018-07-12 07:19:53 GMT 44.248924 -0.804347 10,750 1 386 -3136
2018-07-12 07:19:44 GMT 44.234962 -0.804816 11,125 1 388 -2816
2018-07-12 07:19:41 GMT 44.229538 -0.804945 11,275 1 389 -3520
2018-07-12 07:19:36 GMT 44.218964 -0.805206 11,625 0 385 -4480
2018-07-12 07:19:31 GMT 44.210449 -0.805337 12,000 0 382 -4544
2018-07-12 07:19:25 GMT 44.199673 -0.805351 12,450 1 376 -4544
2018-07-12 07:19:19 GMT 44.188889 -0.806026 12,900 5 371 -4544
2018-07-12 07:19:15 GMT 44.182388 -0.807048 13,200 9 368 -4480
2018-07-12 07:19:10 GMT 44.173046 -0.809588 13,625 15 363 -4288
2018-07-12 07:19:04 GMT 44.165226 -0.812531 13,950 18 360 -4096
2018-07-12 07:18:59 GMT 44.155060 -0.817779 14,375 25 357 -3200
2018-07-12 07:18:54 GMT 44.148926 -0.821803 14,600 29 355 -2560
2018-07-12 07:18:46 GMT 44.139202 -0.829991 14,875 34 356 -832
2018-07-12 07:18:43 GMT 44.134827 -0.834258 14,950 35 357 -448
2018-07-12 07:18:36 GMT 44.123329 -0.845490 14,975 35 358 -256
2018-07-12 07:18:33 GMT 44.120499 -0.848119 14,975 35 358 -384
2018-07-12 07:18:25 GMT 44.108734 -0.859489 15,075 34 361 -1408
2018-07-12 07:18:22 GMT 44.106152 -0.862034 15,125 35 361 -1664
2018-07-12 07:18:18 GMT 44.100815 -0.867217 15,225 35 361 -1664
2018-07-12 07:18:13 GMT 44.091766 -0.876029 15,400 35 363 -1600
2018-07-12 07:18:02 GMT 44.078453 -0.889108 15,650 35 363 -1664
2018-07-12 07:17:56 GMT 44.070053 -0.897302 15,800 34 366 -1600
2018-07-12 07:17:52 GMT 44.063972 -0.903233 16,275 34 366 -1600
2018-07-12 07:17:42 GMT 44.049042 -0.917806 16,225 34 366 -1600
2018-07-12 07:17:38 GMT 44.045586 -0.921151 16,275 34 366 -1600
2018-07-12 07:17:30 GMT 44.033249 -0.933119 16,525 35 367 -1600
2018-07-12 07:17:20 GMT 44.018738 -0.947251 16,875 35 368 -1664
2018-07-12 07:17:16 GMT 44.014389 -0.951467 16,875 35 368 -1664
2018-07-12 07:17:11 GMT 44.007111 -0.958557 17,000 35 371 -1600
2018-07-12 07:17:08 GMT 44.003494 -0.962134 17,075 35 371 -1600
2018-07-12 07:17:01 GMT 43.991821 -0.973504 17,300 35 371 -1664
2018-07-12 07:16:58 GMT 43.988708 -0.976506 17,350 35 371 -1664
2018-07-12 07:16:49 GMT 43.977036 -0.987875 17,575 35 371 -1664
2018-07-12 07:16:46 GMT 43.972824 -0.992027 17,650 35 372 -1664
2018-07-12 07:16:39 GMT 43.962955 -1.001652 17,850 35 372 -1664
2018-07-12 07:16:36 GMT 43.958038 -1.006399 18,025 35 374 -1600
2018-07-12 07:16:29 GMT 43.948105 -1.015908 18,025 35 374 -1600
2018-07-12 07:16:26 GMT 43.942429 -1.021537 18,225 35 374 -1664
2018-07-12 07:16:21 GMT 43.937576 -1.026200 18,325 35 374 -1600
2018-07-12 07:16:18 GMT 43.931030 -1.032523 18,450 34 375 -1600
2018-07-12 07:16:14 GMT 43.925903 -1.037442 18,525 34 376 -1664
2018-07-12 07:16:08 GMT 43.918213 -1.044851 18,675 34 377 -1664
2018-07-12 07:16:02 GMT 43.910156 -1.052580 18,825 34 377 -1600
2018-07-12 07:15:57 GMT 43.903137 -1.059331 18,950 34 378 -1664
2018-07-12 07:15:52 GMT 43.894245 -1.067897 19,125 35 379 -1664
2018-07-12 07:15:48 GMT 43.888191 -1.073783 19,250 35 379 -1600
2018-07-12 07:15:41 GMT 43.878662 -1.082984 19,425 35 381 -1664
2018-07-12 07:15:37 GMT 43.873203 -1.088300 19,525 35 381 -1600
2018-07-12 07:15:30 GMT 43.862091 -1.099144 19,725 35 382 -1664
2018-07-12 07:15:26 GMT 43.856724 -1.104388 19,825 35 383 -1664
2018-07-12 07:15:19 GMT 43.846161 -1.114537 20,025 35 383 -1664
2018-07-12 07:15:15 GMT 43.841995 -1.118817 20,100 35 383 -1664
2018-07-12 07:15:06 GMT 43.827850 -1.132486 20,350 34 385 -1664
2018-07-12 07:14:57 GMT 43.813755 -1.145979 20,625 34 388 -1664
2018-07-12 07:14:53 GMT 43.809357 -1.150179 20,700 34 389 -1664
2018-07-12 07:14:45 GMT 43.797501 -1.161549 20,900 34 390 -1600
2018-07-12 07:14:35 GMT 43.781479 -1.176751 21,225 34 391 -1664
2018-07-12 07:14:32 GMT 43.777584 -1.180638 21,275 34 391 -1664
2018-07-12 07:14:24 GMT 43.764690 -1.193128 21,500 34 392 -1664
2018-07-12 07:14:20 GMT 43.760971 -1.196679 21,575 35 393 -1664
2018-07-12 07:14:15 GMT 43.753052 -1.204311 21,700 35 397 -1664
2018-07-12 07:14:12 GMT 43.746918 -1.210285 21,825 35 396 -1664
2018-07-12 07:14:04 GMT 43.737305 -1.219546 22,000 35 397 -1664
2018-07-12 07:14:00 GMT 43.731266 -1.225368 22,100 35 398 -1664
2018-07-12 07:13:52 GMT 43.719673 -1.236616 22,300 35 399 -1664
2018-07-12 07:13:46 GMT 43.709976 -1.245990 22,475 34 400 -1664
2018-07-12 07:13:42 GMT 43.703285 -1.252441 22,600 34 401 -1664
2018-07-12 07:13:39 GMT 43.697983 -1.257551 22,675 34 402 -1664
2018-07-12 07:13:28 GMT 43.681137 -1.273711 22,975 34 405 -1600
2018-07-12 07:13:21 GMT 43.671864 -1.282523 23,150 34 405 -1728
2018-07-12 07:13:17 GMT 43.663113 -1.290894 23,300 34 404 -1664
2018-07-12 07:13:12 GMT 43.656921 -1.296770 23,525 34 406 -1600
2018-07-12 07:13:06 GMT 43.646164 -1.307054 23,600 34 406 -1600
2018-07-12 07:12:59 GMT 43.638107 -1.314719 23,725 34 406 -1600
2018-07-12 07:12:53 GMT 43.628201 -1.323918 23,900 34 414 -1664
2018-07-12 07:12:47 GMT 43.619354 -1.332485 24,125 34 408 -1664
2018-07-12 07:12:44 GMT 43.614651 -1.336932 24,125 34 408 -1664
2018-07-12 07:12:36 GMT 43.602493 -1.348572 24,350 34 411 -1664
2018-07-12 07:12:28 GMT 43.588760 -1.361602 24,575 34 413 -1664
2018-07-12 07:12:18 GMT 43.571320 -1.378401 24,875 34 414 -1728
2018-07-12 07:12:10 GMT 43.559052 -1.390154 25,100 34 416 -1728
2018-07-12 07:12:04 GMT 43.551155 -1.397683 25,250 34 416 -1728
2018-07-12 07:11:58 GMT 43.541016 -1.407272 25,425 34 416 -1664
2018-07-12 07:11:46 GMT 43.522797 -1.424710 25,800 34 421 -1088
2018-07-12 07:11:37 GMT 43.506233 -1.440451 25,900 34 426 -1088
2018-07-12 07:11:26 GMT 43.488831 -1.457030 26,075 34 432 -1024
2018-07-12 07:11:20 GMT 43.481644 -1.463928 26,150 34 434 -960
2018-07-12 07:11:17 GMT 43.475418 -1.469869 26,200 34 433 -960
2018-07-12 07:11:13 GMT 43.468826 -1.476128 26,275 34 434 -1024
2018-07-12 07:11:07 GMT 43.457245 -1.487114 26,400 34 436 -1088
2018-07-12 07:11:03 GMT 43.452072 -1.492033 26,450 34 438 -1024
2018-07-12 07:10:56 GMT 43.441944 -1.501726 26,550 34 439 -1024
2018-07-12 07:10:46 GMT 43.425064 -1.517710 26,700 34 440 -960
2018-07-12 07:10:41 GMT 43.416504 -1.525822 26,825 34 436 -1024
2018-07-12 07:10:34 GMT 43.403770 -1.537890 26,925 34 439 -1024
2018-07-12 07:10:30 GMT 43.397438 -1.543906 27,050 34 436 -1024
2018-07-12 07:10:25 GMT 43.387428 -1.553388 27,100 34 437 -1088
2018-07-12 07:10:14 GMT 43.369507 -1.570391 27,275 34 436 -1024
2018-07-12 07:10:09 GMT 43.363178 -1.576407 27,400 34 436 -1024
2018-07-12 07:10:05 GMT 43.356380 -1.582881 27,400 34 436 -1024
2018-07-12 07:10:00 GMT 43.346741 -1.591996 27,500 34 436 -1088
2018-07-12 07:09:51 GMT 43.331985 -1.606031 27,650 34 438 -1088
2018-07-12 07:09:46 GMT 43.323807 -1.613777 27,775 34 438 -1024
2018-07-12 07:09:39 GMT 43.311127 -1.625785 27,900 34 438 -1024
2018-07-12 07:09:18 GMT 43.275425 -1.659524 28,075 34 440 -1088
2018-07-12 07:09:14 GMT 43.270752 -1.663982 28,075 34 440 -1088
2018-07-12 07:09:07 GMT 43.257969 -1.676134 28,225 34 444 -1216
2018-07-12 07:09:00 GMT 43.247635 -1.685878 28,350 34 451 -1216
2018-07-12 07:08:56 GMT 43.239254 -1.693791 28,450 34 451 -1216
2018-07-12 07:08:51 GMT 43.232391 -1.700198 28,525 34 451 -1216
2018-07-12 07:08:44 GMT 43.220856 -1.711057 28,675 34 453 -1216
2018-07-12 07:08:37 GMT 43.207672 -1.723321 28,825 30 451 -1280
2018-07-12 07:08:33 GMT 43.198837 -1.730922 28,925 30 451 -1280
2018-07-12 07:08:22 GMT 43.180893 -1.745485 29,125 30 450 -1344
2018-07-12 07:08:11 GMT 43.160843 -1.761773 29,375 30 452 -1280
2018-07-12 07:08:01 GMT 43.141388 -1.777486 29,575 30 454 -1280
2018-07-12 07:07:50 GMT 43.124130 -1.791425 29,775 30 458 -1344
2018-07-12 07:07:40 GMT 43.104034 -1.807443 30,025 30 460 -1280
2018-07-12 07:07:30 GMT 43.086777 -1.822517 30,225 35 465 -1152
2018-07-12 07:07:19 GMT 43.068176 -1.842172 30,450 41 469 -1152
2018-07-12 07:07:14 GMT 43.060730 -1.851260 30,550 48 476 -1088
2018-07-12 07:07:09 GMT 43.051414 -1.863817 30,675 46 474 -1152
2018-07-12 07:06:59 GMT 43.037636 -1.885659 30,875 54 480 -1024
2018-07-12 07:06:47 GMT 43.022324 -1.915454 31,125 55 482 -1280
2018-07-12 07:06:41 GMT 43.015663 -1.928820 31,225 55 483 -1344
2018-07-12 07:06:38 GMT 43.010513 -1.939151 31,325 55 485 -1344
2018-07-12 07:06:31 GMT 43.002319 -1.955630 31,450 55 485 -1280
2018-07-12 07:06:26 GMT 42.996689 -1.967064 31,550 56 485 -1280
2018-07-12 07:06:15 GMT 42.983170 -1.994476 31,800 56 484 -1280
2018-07-12 07:06:05 GMT 42.969765 -2.021811 31,975 56 483 -192
2018-07-12 07:05:54 GMT 42.955811 -2.050547 32,000 56 483 0
2018-07-12 07:05:43 GMT 42.942902 -2.076927 32,000 56 484 0
2018-07-12 07:05:34 GMT 42.930862 -2.101582 32,000 56 485 0
2018-07-12 07:05:26 GMT 42.921349 -2.121211 32,000 56 485 0
2018-07-12 07:05:22 GMT 42.917534 -2.129124 32,000 56 485 0
2018-07-12 07:05:11 GMT 42.903214 -2.158813 31,975 56 486 0
2018-07-12 07:05:02 GMT 42.889648 -2.186999 32,000 56 487 64
2018-07-12 07:04:59 GMT 42.886063 -2.194388 32,000 56 487 64
2018-07-12 07:04:54 GMT 42.882942 -2.200797 32,000 56 487 64
2018-07-12 07:04:50 GMT 42.878010 -2.211064 31,975 56 488 0
2018-07-12 07:04:43 GMT 42.869110 -2.229522 31,975 56 488 64
2018-07-12 07:04:40 GMT 42.864624 -2.238720 31,975 56 488 64
2018-07-12 07:04:35 GMT 42.858673 -2.251048 31,975 56 488 64
2018-07-12 07:04:29 GMT 42.850681 -2.267434 31,975 56 489 64
2018-07-12 07:04:23 GMT 42.844482 -2.280238 31,975 56 488 -1024
2018-07-12 07:04:18 GMT 42.837250 -2.295121 32,025 56 488 -1024
2018-07-12 07:04:13 GMT 42.830704 -2.308726 32,125 56 489 -1024
2018-07-12 07:04:08 GMT 42.824890 -2.320862 32,200 57 488 -1024
2018-07-12 07:04:01 GMT 42.817291 -2.336830 32,300 57 489 -1024
2018-07-12 07:03:58 GMT 42.811440 -2.349243 32,375 57 490 -1024
2018-07-12 07:03:46 GMT 42.798660 -2.376605 32,550 57 493 -960
2018-07-12 07:03:35 GMT 42.784103 -2.408253 32,725 58 497 -960
2018-07-12 07:03:25 GMT 42.773300 -2.431849 32,975 58 499 -960
2018-07-12 07:03:19 GMT 42.764053 -2.452011 32,975 58 500 -960
2018-07-12 07:03:14 GMT 42.760254 -2.460313 33,025 58 500 -960
2018-07-12 07:03:09 GMT 42.752274 -2.477609 33,150 57 501 -1024
2018-07-12 07:03:04 GMT 42.747253 -2.488591 33,200 57 502 -960
2018-07-12 07:02:58 GMT 42.737701 -2.509098 33,375 57 503 -960
2018-07-12 07:02:53 GMT 42.733837 -2.517402 33,375 57 503 -960
2018-07-12 07:02:42 GMT 42.713913 -2.559240 33,650 54 500 -1280
2018-07-12 07:02:32 GMT 42.706650 -2.572174 33,750 48 495 -1280
2018-07-12 07:02:26 GMT 42.693893 -2.590346 33,875 42 489 -1024
2018-07-12 07:02:21 GMT 42.689575 -2.595770 33,925 41 489 -832
2018-07-12 07:02:15 GMT 42.674561 -2.613997 34,000 41 490 0
2018-07-12 07:02:12 GMT 42.671677 -2.617493 34,000 41 490 0
2018-07-12 07:02:00 GMT 42.652977 -2.640232 34,000 41 490 -64
2018-07-12 07:01:51 GMT 42.636429 -2.660314 34,000 41 490 -64
2018-07-12 07:01:39 GMT 42.617523 -2.683223 34,000 41 490 0
2018-07-12 07:01:29 GMT 42.600464 -2.703850 34,000 41 489 0
2018-07-12 07:01:18 GMT 42.582077 -2.725951 34,000 41 484 0
2018-07-12 07:01:07 GMT 42.555355 -2.757888 34,000 41 478 0
2018-07-12 07:00:58 GMT 42.547443 -2.767405 34,000 41 475 64
2018-07-12 07:00:46 GMT 42.529404 -2.789029 34,000 41 470 0
2018-07-12 07:00:36 GMT 42.512154 -2.809562 34,000 41 465 0
2018-07-12 07:00:24 GMT 42.493332 -2.832101 33,975 40 462 -64
2018-07-12 07:00:15 GMT 42.477402 -2.850016 33,975 37 461 -64
2018-07-12 07:00:04 GMT 42.458385 -2.868901 33,975 34 457 -64
2018-07-12 06:59:52 GMT 42.439407 -2.885409 34,000 30 456 -832
2018-07-12 06:59:42 GMT 42.419144 -2.900582 34,225 26 454 -1856
2018-07-12 06:59:35 GMT 42.406853 -2.908630 34,400 24 453 -1856
2018-07-12 06:59:32 GMT 42.400726 -2.912313 34,500 24 454 -1792
2018-07-12 06:59:27 GMT 42.390564 -2.918493 34,650 24 455 -1792
2018-07-12 06:59:20 GMT 42.379028 -2.925422 34,825 24 456 -1792
2018-07-12 06:59:15 GMT 42.369751 -2.930986 34,975 23 457 -1792
2018-07-12 06:59:10 GMT 42.358952 -2.937501 35,150 23 458 -1856
2018-07-12 06:59:03 GMT 42.345173 -2.945741 35,350 24 459 -1792
2018-07-12 06:59:00 GMT 42.338562 -2.949704 35,450 24 461 -1856
2018-07-12 06:58:52 GMT 42.322224 -2.959538 35,700 24 462 -1792
2018-07-12 06:58:49 GMT 42.317734 -2.962251 35,775 24 463 -1792
2018-07-12 06:58:39 GMT 42.297363 -2.974548 36,075 24 464 -1920
2018-07-12 06:58:33 GMT 42.286377 -2.981228 36,650 24 469 -1856
2018-07-12 06:58:27 GMT 42.275810 -2.987643 36,400 24 467 -1856
2018-07-12 06:58:23 GMT 42.266174 -2.993519 36,550 24 468 -1856
2018-07-12 06:58:17 GMT 42.255341 -3.000141 36,725 24 469 -1856
2018-07-12 06:58:12 GMT 42.245636 -3.006072 36,850 24 470 -1792
2018-07-12 06:58:07 GMT 42.234329 -3.012938 37,025 24 471 -1792
2018-07-12 06:58:00 GMT 42.221008 -3.021053 37,200 24 473 -1792
2018-07-12 06:57:56 GMT 42.213409 -3.025610 37,325 24 475 -1664
2018-07-12 06:57:49 GMT 42.200394 -3.033568 37,500 24 476 -1344
2018-07-12 06:57:45 GMT 42.191734 -3.038869 37,600 24 478 -1216
2018-07-12 06:57:35 GMT 42.170105 -3.051952 37,800 24 481 -1152
2018-07-12 06:57:24 GMT 42.148582 -3.064930 37,975 24 483 -192
2018-07-12 06:57:14 GMT 42.126755 -3.078169 38,000 24 484 0
2018-07-12 06:57:03 GMT 42.105892 -3.090735 38,000 24 484 0
2018-07-12 06:56:52 GMT 42.084248 -3.103829 38,000 24 484 0
2018-07-12 06:56:41 GMT 42.061951 -3.117307 37,975 24 485 0
2018-07-12 06:56:31 GMT 42.040489 -3.130273 38,000 24 486 0
2018-07-12 06:56:21 GMT 42.018997 -3.143276 38,000 24 485 -64
2018-07-12 06:56:09 GMT 41.997288 -3.156334 38,000 24 485 -64
2018-07-12 06:56:03 GMT 41.984802 -3.163875 38,000 24 485 -64
2018-07-12 06:55:59 GMT 41.975967 -3.169172 38,000 23 484 0
2018-07-12 06:55:54 GMT 41.965118 -3.175611 38,000 24 485 0
2018-07-12 06:55:48 GMT 41.953857 -3.182352 38,000 23 485 0
2018-07-12 06:55:42 GMT 41.940308 -3.190442 38,000 23 485 0
2018-07-12 06:55:38 GMT 41.931885 -3.195399 38,000 23 485 -64
2018-07-12 06:55:35 GMT 41.922245 -3.201109 38,000 23 485 0
2018-07-12 06:55:27 GMT 41.910965 -3.207821 38,000 23 485 0
2018-07-12 06:55:21 GMT 41.898651 -3.215062 38,000 23 485 0
2018-07-12 06:55:17 GMT 41.888821 -3.220846 38,000 23 485 64
2018-07-12 06:55:11 GMT 41.878345 -3.227042 38,000 23 485 0
2018-07-12 06:55:07 GMT 41.867035 -3.233685 38,000 23 484 64
2018-07-12 06:55:01 GMT 41.857590 -3.239219 38,000 23 485 64
2018-07-12 06:54:55 GMT 41.844269 -3.247099 37,975 23 485 64
2018-07-12 06:54:50 GMT 41.833191 -3.253678 37,975 23 485 0
2018-07-12 06:54:45 GMT 41.823303 -3.259506 37,975 23 485 -64
2018-07-12 06:54:38 GMT 41.810379 -3.267155 38,000 23 485 0
2018-07-12 06:54:33 GMT 41.798882 -3.273926 38,000 23 485 -64
2018-07-12 06:54:28 GMT 41.790070 -3.279169 38,000 23 484 0
2018-07-12 06:54:23 GMT 41.778584 -3.285934 38,000 23 484 0
2018-07-12 06:54:18 GMT 41.767319 -3.292590 38,000 23 484 0
2018-07-12 06:54:12 GMT 41.757076 -3.298645 37,975 23 484 0
2018-07-12 06:54:06 GMT 41.742737 -3.307197 37,975 23 485 0
2018-07-12 06:54:02 GMT 41.736595 -3.310845 38,000 23 485 0
2018-07-12 06:53:57 GMT 41.724678 -3.317871 37,975 23 485 -64
2018-07-12 06:53:51 GMT 41.712994 -3.324769 38,000 23 485 -64
2018-07-12 06:53:48 GMT 41.707870 -3.327772 38,000 23 485 -64
2018-07-12 06:53:44 GMT 41.695583 -3.335053 38,000 23 485 0
2018-07-12 06:53:41 GMT 41.692509 -3.336842 38,000 23 485 0
2018-07-12 06:53:36 GMT 41.683044 -3.342465 38,000 23 485 0
2018-07-12 06:53:28 GMT 41.665417 -3.352938 38,000 24 486 0
2018-07-12 06:53:19 GMT 41.646561 -3.364126 38,000 23 485 0
2018-07-12 06:53:16 GMT 41.642235 -3.366671 38,000 23 485 0
2018-07-12 06:53:09 GMT 41.628082 -3.375038 38,000 23 486 0
2018-07-12 06:53:06 GMT 41.621704 -3.378807 38,000 23 486 0
2018-07-12 06:52:58 GMT 41.605042 -3.388658 37,975 23 486 0
2018-07-12 06:52:52 GMT 41.592049 -3.396244 37,975 23 486 0
2018-07-12 06:52:45 GMT 41.578690 -3.404101 37,975 23 486 -64
2018-07-12 06:52:36 GMT 41.558304 -3.416061 38,000 23 487 0
2018-07-12 06:52:27 GMT 41.536880 -3.428671 38,000 23 487 0
2018-07-12 06:52:17 GMT 41.518936 -3.439220 37,975 23 487 0
2018-07-12 06:52:13 GMT 41.507996 -3.445650 37,975 23 487 -64
2018-07-12 06:52:07 GMT 41.497688 -3.451751 37,975 23 487 -64
2018-07-12 06:51:57 GMT 41.479721 -3.462354 37,975 23 487 0
2018-07-12 06:51:50 GMT 41.457047 -3.475737 38,000 23 488 -64
2018-07-12 06:51:43 GMT 41.450855 -3.479345 37,975 23 488 0
2018-07-12 06:51:38 GMT 41.435120 -3.488596 37,975 23 488 0
2018-07-12 06:51:35 GMT 41.431824 -3.490531 37,975 23 488 0
2018-07-12 06:51:31 GMT 41.419201 -3.497868 37,975 23 489 -64
2018-07-12 06:51:22 GMT 41.406773 -3.505150 38,000 23 488 0
2018-07-12 06:51:09 GMT 41.373672 -3.524614 38,000 23 489 0
2018-07-12 06:51:01 GMT 41.363106 -3.530794 38,000 23 489 0
2018-07-12 06:50:50 GMT 41.340317 -3.544128 38,000 23 490 0
2018-07-12 06:50:42 GMT 41.321674 -3.555013 37,975 23 490 0
2018-07-12 06:50:37 GMT 41.313171 -3.559998 37,975 23 490 0
2018-07-12 06:50:31 GMT 41.299667 -3.567871 38,000 23 490 -64
2018-07-12 06:50:28 GMT 41.294487 -3.570931 38,000 23 490 -64
2018-07-12 06:50:19 GMT 41.275406 -3.582092 38,000 23 490 0
2018-07-12 06:50:09 GMT 41.254623 -3.594238 38,000 23 490 -64
2018-07-12 06:49:59 GMT 41.233887 -3.606384 38,000 23 490 0
2018-07-12 06:49:46 GMT 41.205643 -3.622803 38,000 23 490 0
2018-07-12 06:49:37 GMT 41.188816 -3.632604 38,000 23 490 0
2018-07-12 06:49:27 GMT 41.167831 -3.644775 38,000 23 490 0
2018-07-12 06:49:17 GMT 41.144962 -3.658135 38,000 23 490 -64
2018-07-12 06:49:07 GMT 41.126266 -3.669006 38,000 23 490 0
2018-07-12 06:49:04 GMT 41.120850 -3.672118 38,000 23 490 0
2018-07-12 06:48:59 GMT 41.108597 -3.679260 38,000 23 490 0
2018-07-12 06:48:55 GMT 41.101158 -3.683603 38,000 23 490 0
2018-07-12 06:48:44 GMT 41.076672 -3.697898 38,000 23 490 -64
2018-07-12 06:48:34 GMT 41.054672 -3.710693 38,000 23 490 0
2018-07-12 06:48:23 GMT 41.029358 -3.725342 38,000 23 490 0
2018-07-12 06:48:14 GMT 41.016907 -3.732544 38,000 23 490 0
2018-07-12 06:48:09 GMT 41.001534 -3.741469 38,000 23 490 0
2018-07-12 06:48:00 GMT 40.982254 -3.752625 38,000 23 490 0
2018-07-12 06:47:56 GMT 40.976631 -3.755889 38,000 23 490 0
2018-07-12 06:47:53 GMT 40.972046 -3.758545 38,000 23 490 0
2018-07-12 06:47:49 GMT 40.958984 -3.766126 38,000 23 490 -64
2018-07-12 06:47:43 GMT 40.952145 -3.770121 38,000 23 490 0
2018-07-12 06:47:37 GMT 40.939713 -3.777299 38,000 23 490 -64
2018-07-12 06:47:32 GMT 40.929291 -3.783325 37,975 23 490 0
2018-07-12 06:47:24 GMT 40.912308 -3.793213 38,000 23 490 0
2018-07-12 06:47:21 GMT 40.906475 -3.796588 38,000 23 490 0
2018-07-12 06:47:16 GMT 40.892555 -3.804578 38,000 23 490 -64
2018-07-12 06:47:11 GMT 40.885483 -3.808655 38,000 23 489 -64
2018-07-12 06:47:04 GMT 40.868069 -3.818685 38,000 23 489 0
2018-07-12 06:47:00 GMT 40.862869 -3.821655 38,000 23 489 0
2018-07-12 06:46:50 GMT 40.841255 -3.834041 37,975 23 490 0
2018-07-12 06:46:46 GMT 40.834412 -3.837911 37,975 23 490 0
2018-07-12 06:46:40 GMT 40.820251 -3.846008 38,000 23 490 0
2018-07-12 06:46:32 GMT 40.805099 -3.854675 38,000 23 490 0
2018-07-12 06:46:29 GMT 40.797592 -3.859009 38,000 23 489 0
2018-07-12 06:46:25 GMT 40.788483 -3.864258 38,000 23 489 0
2018-07-12 06:46:20 GMT 40.775162 -3.871887 38,000 23 490 0
2018-07-12 06:46:16 GMT 40.769531 -3.875122 38,000 23 490 0
2018-07-12 06:46:08 GMT 40.755413 -3.883230 37,975 23 490 0
2018-07-12 06:46:02 GMT 40.740005 -3.892029 37,975 23 491 0
2018-07-12 06:45:57 GMT 40.732697 -3.896214 38,000 23 491 0
2018-07-12 06:45:52 GMT 40.720413 -3.903259 37,975 23 492 0
2018-07-12 06:45:47 GMT 40.710800 -3.908752 37,975 23 492 0
2018-07-12 06:45:36 GMT 40.687866 -3.921869 37,975 23 493 0
2018-07-12 06:45:26 GMT 40.667381 -3.933605 37,975 23 493 0
2018-07-12 06:45:19 GMT 40.652950 -3.941907 37,975 23 493 0
2018-07-12 06:45:16 GMT 40.645248 -3.946350 37,975 23 493 0
2018-07-12 06:45:08 GMT 40.630188 -3.955016 38,000 23 494 0
2018-07-12 06:45:05 GMT 40.622646 -3.959323 38,000 23 493 0
2018-07-12 06:45:01 GMT 40.609909 -3.966675 38,000 23 493 0
2018-07-12 06:44:50 GMT 40.587082 -3.979673 38,000 23 493 -64
2018-07-12 06:44:43 GMT 40.574707 -3.986694 38,000 23 493 0
2018-07-12 06:44:37 GMT 40.564865 -3.992249 38,000 23 493 0
2018-07-12 06:44:34 GMT 40.557522 -3.996402 38,000 23 493 0
2018-07-12 06:44:29 GMT 40.541786 -4.005328 38,000 23 494 0
2018-07-12 06:44:22 GMT 40.532593 -4.010559 38,000 23 494 0
2018-07-12 06:44:16 GMT 40.520416 -4.017438 38,000 23 494 0
2018-07-12 06:44:11 GMT 40.509712 -4.023555 38,000 23 494 0
2018-07-12 06:44:01 GMT 40.488716 -4.035478 38,000 23 494 0
2018-07-12 06:43:50 GMT 40.466904 -4.047852 38,000 23 494 0
2018-07-12 06:43:41 GMT 40.446728 -4.059261 37,975 23 495 -64
2018-07-12 06:43:30 GMT 40.422958 -4.072754 38,000 23 495 0
2018-07-12 06:43:21 GMT 40.403824 -4.083557 38,000 23 495 0
2018-07-12 06:43:16 GMT 40.394577 -4.088806 38,000 23 495 0
2018-07-12 06:43:11 GMT 40.383820 -4.094910 38,000 23 496 0
2018-07-12 06:43:01 GMT 40.361908 -4.107264 38,000 23 496 0
2018-07-12 06:42:50 GMT 40.332813 -4.123681 38,000 23 496 0
2018-07-12 06:42:43 GMT 40.323761 -4.128784 37,975 23 496 0
2018-07-12 06:42:38 GMT 40.306870 -4.138306 37,975 23 497 0
2018-07-12 06:42:33 GMT 40.302658 -4.140686 37,975 23 497 0
2018-07-12 06:42:29 GMT 40.296314 -4.144218 37,975 23 497 0
2018-07-12 06:42:24 GMT 40.279633 -4.153625 37,975 23 497 0
2018-07-12 06:42:19 GMT 40.273689 -4.156952 37,975 23 498 0
2018-07-12 06:42:16 GMT 40.266907 -4.160767 37,975 23 498 0
2018-07-12 06:42:12 GMT 40.259308 -4.165004 37,975 23 498 -64
2018-07-12 06:42:08 GMT 40.251671 -4.169312 38,000 23 498 -64
2018-07-12 06:42:01 GMT 40.233891 -4.179362 38,000 23 499 -64
2018-07-12 06:41:58 GMT 40.227139 -4.183169 38,000 23 499 -64
2018-07-12 06:41:50 GMT 40.210426 -4.192657 38,000 23 499 64
2018-07-12 06:41:47 GMT 40.207027 -4.194593 38,000 23 499 64
2018-07-12 06:41:43 GMT 40.197922 -4.199768 38,000 23 499 64
2018-07-12 06:41:37 GMT 40.185009 -4.207077 38,000 23 499 0
2018-07-12 06:41:29 GMT 40.167206 -4.217163 38,000 23 500 0
2018-07-12 06:41:26 GMT 40.162758 -4.219686 38,000 23 499 0
2018-07-12 06:41:19 GMT 40.147476 -4.228271 38,000 23 499 0
2018-07-12 06:41:16 GMT 40.140884 -4.231934 38,000 23 499 0
2018-07-12 06:41:06 GMT 40.120102 -4.243652 38,000 23 499 0
2018-07-12 06:40:58 GMT 40.101402 -4.254143 38,000 23 500 0
2018-07-12 06:40:55 GMT 40.096939 -4.256653 38,000 23 500 0
2018-07-12 06:40:49 GMT 40.082081 -4.265067 38,000 23 500 0
2018-07-12 06:40:45 GMT 40.075520 -4.268750 38,000 23 501 0
2018-07-12 06:40:38 GMT 40.057644 -4.278800 38,000 23 501 0
2018-07-12 06:40:35 GMT 40.053223 -4.281311 38,000 23 501 0
2018-07-12 06:40:32 GMT 40.044067 -4.286499 38,000 23 501 0
2018-07-12 06:40:28 GMT 40.038742 -4.289474 38,000 23 501 0
2018-07-12 06:40:25 GMT 40.031708 -4.293457 38,000 23 501 0
2018-07-12 06:40:20 GMT 40.021099 -4.299400 38,000 23 500 -64
2018-07-12 06:40:17 GMT 40.014725 -4.302979 38,000 23 500 -64
2018-07-12 06:40:14 GMT 40.009598 -4.305847 38,000 23 500 -64
2018-07-12 06:40:06 GMT 39.992569 -4.315369 38,000 23 500 0
2018-07-12 06:40:00 GMT 39.975998 -4.324646 38,000 23 500 0
2018-07-12 06:39:57 GMT 39.971329 -4.327209 38,000 23 500 0
2018-07-12 06:39:50 GMT 39.954300 -4.336731 38,000 23 500 0
2018-07-12 06:39:46 GMT 39.948757 -4.339787 38,000 23 500 0
2018-07-12 06:39:42 GMT 39.940235 -4.344531 38,000 23 500 0
2018-07-12 06:39:35 GMT 39.926643 -4.352084 38,000 23 500 0
2018-07-12 06:39:32 GMT 39.920452 -4.355530 38,000 23 500 0
2018-07-12 06:39:25 GMT 39.904083 -4.364617 38,000 23 500 0
2018-07-12 06:39:22 GMT 39.895824 -4.369202 38,000 23 500 0
2018-07-12 06:39:16 GMT 39.885166 -4.375122 38,000 23 499 0
2018-07-12 06:39:13 GMT 39.878174 -4.379007 38,000 23 499 0
2018-07-12 06:39:10 GMT 39.873093 -4.381813 38,000 23 499 -64
2018-07-12 06:39:04 GMT 39.860779 -4.388680 38,000 23 499 0
2018-07-12 06:39:00 GMT 39.852066 -4.393555 38,000 23 499 0
2018-07-12 06:38:55 GMT 39.839779 -4.400452 38,000 23 499 0
2018-07-12 06:38:52 GMT 39.832096 -4.404663 38,000 23 499 0
2018-07-12 06:38:49 GMT 39.828930 -4.406494 38,000 23 499 0
2018-07-12 06:38:43 GMT 39.815598 -4.413936 38,000 23 499 0
2018-07-12 06:38:40 GMT 39.809418 -4.417400 38,000 23 499 0
2018-07-12 06:38:35 GMT 39.798813 -4.423340 37,975 23 499 0
2018-07-12 06:38:32 GMT 39.792892 -4.426654 37,975 23 499 0
2018-07-12 06:38:28 GMT 39.784195 -4.431519 38,000 23 499 0
2018-07-12 06:38:24 GMT 39.774033 -4.437223 37,975 23 499 0
2018-07-12 06:38:20 GMT 39.766178 -4.441589 37,975 23 499 -64
2018-07-12 06:38:14 GMT 39.752167 -4.449463 38,000 23 499 0
2018-07-12 06:38:09 GMT 39.743912 -4.454060 38,000 23 500 -64
2018-07-12 06:38:06 GMT 39.734344 -4.459434 38,000 23 500 0
2018-07-12 06:38:03 GMT 39.731186 -4.461166 38,000 23 499 -64
2018-07-12 06:37:58 GMT 39.721207 -4.466778 38,000 23 499 0
2018-07-12 06:37:53 GMT 39.710403 -4.472809 38,000 23 498 0
2018-07-12 06:37:49 GMT 39.700214 -4.478516 38,000 23 498 0
2018-07-12 06:37:46 GMT 39.692162 -4.483032 38,000 23 498 0
2018-07-12 06:37:42 GMT 39.685364 -4.486840 38,000 23 499 0
2018-07-12 06:37:38 GMT 39.678616 -4.490662 38,000 23 498 0
2018-07-12 06:37:33 GMT 39.664368 -4.498596 38,000 23 499 0
2018-07-12 06:37:26 GMT 39.647827 -4.507738 38,000 23 499 0
2018-07-12 06:37:22 GMT 39.643616 -4.510127 38,000 23 499 0
2018-07-12 06:37:17 GMT 39.633831 -4.515503 38,000 22 499 0
2018-07-12 06:37:11 GMT 39.620655 -4.522644 37,975 22 498 0
2018-07-12 06:37:06 GMT 39.609604 -4.528576 37,975 22 498 0
2018-07-12 06:37:01 GMT 39.599991 -4.533711 37,975 22 498 0
2018-07-12 06:36:54 GMT 39.584427 -4.541891 38,000 22 497 0
2018-07-12 06:36:51 GMT 39.576782 -4.545952 37,975 22 497 0
2018-07-12 06:36:47 GMT 39.566299 -4.551445 37,975 22 497 0
2018-07-12 06:36:44 GMT 39.563770 -4.552795 38,000 22 497 0
2018-07-12 06:36:41 GMT 39.555248 -4.557312 38,000 22 497 0
2018-07-12 06:36:37 GMT 39.548813 -4.560640 38,000 22 497 0
2018-07-12 06:36:32 GMT 39.538166 -4.566284 38,000 22 497 0
2018-07-12 06:36:29 GMT 39.530914 -4.570074 38,000 22 497 0
2018-07-12 06:36:21 GMT 39.505325 -4.583508 38,000 22 497 0
2018-07-12 06:36:15 GMT 39.498734 -4.586971 38,000 22 497 0
2018-07-12 06:36:11 GMT 39.490631 -4.591210 38,000 22 497 0
2018-07-12 06:36:07 GMT 39.483143 -4.595093 38,000 22 497 0
2018-07-12 06:36:00 GMT 39.468246 -4.602913 38,000 22 497 0
2018-07-12 06:35:57 GMT 39.460327 -4.607093 38,000 22 497 0
2018-07-12 06:35:53 GMT 39.453735 -4.610556 38,000 22 497 0
2018-07-12 06:35:49 GMT 39.446690 -4.614197 38,000 22 497 0
2018-07-12 06:35:44 GMT 39.430676 -4.622559 38,000 22 497 0
2018-07-12 06:35:37 GMT 39.420250 -4.628052 38,000 22 497 0
2018-07-12 06:35:34 GMT 39.412148 -4.632324 37,975 22 497 0
2018-07-12 06:35:29 GMT 39.403839 -4.636648 37,975 22 497 0
2018-07-12 06:35:26 GMT 39.396378 -4.640589 37,975 22 497 0
2018-07-12 06:35:23 GMT 39.386353 -4.645844 37,975 22 497 0
2018-07-12 06:35:18 GMT 39.379097 -4.649658 37,975 22 497 -64
2018-07-12 06:35:15 GMT 39.372253 -4.653259 38,000 22 497 -64
2018-07-12 06:35:08 GMT 39.358196 -4.660583 38,000 22 497 0
2018-07-12 06:35:04 GMT 39.348358 -4.665726 38,000 22 497 0
2018-07-12 06:35:00 GMT 39.336639 -4.671876 38,000 22 497 0
2018-07-12 06:34:55 GMT 39.327236 -4.676819 38,000 22 497 0
2018-07-12 06:34:52 GMT 39.324024 -4.678467 38,000 22 498 0
2018-07-12 06:34:49 GMT 39.314438 -4.683533 38,000 22 498 0
2018-07-12 06:34:46 GMT 39.310802 -4.685425 38,000 22 498 0
2018-07-12 06:34:43 GMT 39.304611 -4.688660 38,000 22 498 0
2018-07-12 06:34:39 GMT 39.292465 -4.695043 38,000 22 498 0
2018-07-12 06:34:34 GMT 39.284130 -4.699341 38,000 22 498 0
2018-07-12 06:34:27 GMT 39.267044 -4.708313 38,000 22 498 0
2018-07-12 06:34:22 GMT 39.259548 -4.712219 38,000 22 498 0
2018-07-12 06:34:14 GMT 39.237949 -4.723389 38,000 21 498 0
2018-07-12 06:34:10 GMT 39.233917 -4.725494 38,000 21 498 0
2018-07-12 06:34:07 GMT 39.226639 -4.729248 38,000 21 498 0
2018-07-12 06:34:02 GMT 39.217026 -4.734272 38,000 22 498 0
2018-07-12 06:33:57 GMT 39.207180 -4.739380 38,000 22 498 0
2018-07-12 06:33:52 GMT 39.194962 -4.745676 38,000 22 498 0
2018-07-12 06:33:46 GMT 39.184067 -4.751348 38,000 22 498 0
2018-07-12 06:33:41 GMT 39.169750 -4.758789 38,000 22 498 0
2018-07-12 06:33:36 GMT 39.162277 -4.762633 38,000 22 498 0
2018-07-12 06:33:31 GMT 39.149002 -4.769499 38,000 22 498 0
2018-07-12 06:33:26 GMT 39.139801 -4.774276 37,975 22 498 0
2018-07-12 06:33:19 GMT 39.122726 -4.783173 38,000 22 498 0
2018-07-12 06:33:14 GMT 39.114395 -4.787531 37,975 22 498 -64
2018-07-12 06:33:10 GMT 39.106293 -4.791711 38,000 22 497 0
2018-07-12 06:33:07 GMT 39.099014 -4.795532 38,000 22 498 0
2018-07-12 06:33:04 GMT 39.092377 -4.798995 38,000 22 497 0
2018-07-12 06:33:01 GMT 39.085785 -4.802458 38,000 22 497 0
2018-07-12 06:32:58 GMT 39.080658 -4.805145 38,000 22 497 0
2018-07-12 06:32:50 GMT 39.062943 -4.814340 38,000 22 497 -64
2018-07-12 06:32:47 GMT 39.054657 -4.818699 38,000 22 497 -64
2018-07-12 06:32:37 GMT 39.029675 -4.831604 38,000 21 497 -64
2018-07-12 06:32:28 GMT 39.015564 -4.838821 38,000 22 497 0
2018-07-12 06:32:22 GMT 38.996017 -4.849243 38,000 23 498 64
2018-07-12 06:32:17 GMT 38.990337 -4.852539 38,000 24 500 0
2018-07-12 06:32:13 GMT 38.977936 -4.859898 38,000 24 500 0
2018-07-12 06:32:03 GMT 38.954590 -4.873690 38,000 24 500 0
2018-07-12 06:31:58 GMT 38.950211 -4.876282 38,000 24 500 0
2018-07-12 06:31:54 GMT 38.944336 -4.879781 38,000 24 500 0
2018-07-12 06:31:50 GMT 38.937176 -4.884033 38,000 24 500 0
2018-07-12 06:31:47 GMT 38.930286 -4.888123 38,000 24 500 0
2018-07-12 06:31:43 GMT 38.922699 -4.892578 38,000 24 500 0
2018-07-12 06:31:37 GMT 38.908447 -4.901037 38,000 24 499 0
2018-07-12 06:31:34 GMT 38.900864 -4.905518 37,975 24 499 0
2018-07-12 06:31:28 GMT 38.888077 -4.913038 38,000 24 499 0
2018-07-12 06:31:23 GMT 38.878010 -4.919006 37,975 24 500 0
2018-07-12 06:31:15 GMT 38.862644 -4.928040 37,975 24 500 0
2018-07-12 06:31:11 GMT 38.854267 -4.932983 37,975 24 500 0
2018-07-12 06:31:05 GMT 38.841652 -4.940430 37,975 24 501 0
2018-07-12 06:31:02 GMT 38.834064 -4.944885 37,975 24 501 0
2018-07-12 06:30:57 GMT 38.823357 -4.951172 38,000 24 500 -64
2018-07-12 06:30:53 GMT 38.816837 -4.955017 38,000 24 500 -64
2018-07-12 06:30:45 GMT 38.794308 -4.968262 38,000 24 501 0
2018-07-12 06:30:40 GMT 38.788010 -4.971970 38,000 24 501 0
2018-07-12 06:30:35 GMT 38.778351 -4.977702 37,975 24 501 0
2018-07-12 06:30:30 GMT 38.767410 -4.984151 37,975 24 501 0
2018-07-12 06:30:24 GMT 38.755417 -4.991196 37,975 24 501 0
2018-07-12 06:30:18 GMT 38.742188 -4.998958 37,975 24 501 0
2018-07-12 06:30:15 GMT 38.734581 -5.003418 37,975 24 501 0
2018-07-12 06:30:08 GMT 38.722595 -5.010482 37,975 24 500 0
2018-07-12 06:30:04 GMT 38.712933 -5.016174 37,975 24 501 0
2018-07-12 06:29:58 GMT 38.700714 -5.023319 37,975 24 501 0
2018-07-12 06:29:54 GMT 38.691425 -5.028809 38,000 24 501 -64
2018-07-12 06:29:47 GMT 38.678604 -5.036336 38,000 24 501 -64
2018-07-12 06:29:43 GMT 38.669128 -5.041870 38,000 24 501 0
2018-07-12 06:29:36 GMT 38.655441 -5.049927 38,000 24 501 0
2018-07-12 06:29:33 GMT 38.647854 -5.054382 38,000 24 500 0
2018-07-12 06:29:27 GMT 38.634201 -5.062369 38,000 24 500 0
2018-07-12 06:29:21 GMT 38.623032 -5.068937 38,000 24 500 0
2018-07-12 06:29:16 GMT 38.611633 -5.075564 38,000 24 500 0
2018-07-12 06:29:12 GMT 38.604935 -5.079468 38,000 24 500 0
2018-07-12 06:29:05 GMT 38.589573 -5.088440 38,000 24 500 0
2018-07-12 06:29:02 GMT 38.582611 -5.092521 38,000 24 500 0
2018-07-12 06:28:59 GMT 38.575836 -5.096436 38,000 24 500 0
2018-07-12 06:28:55 GMT 38.563221 -5.103821 37,975 24 501 0
2018-07-12 06:28:51 GMT 38.559639 -5.105896 37,975 24 501 0
2018-07-12 06:28:47 GMT 38.551437 -5.110673 37,975 24 501 0
2018-07-12 06:28:41 GMT 38.538364 -5.118286 37,975 24 501 0
2018-07-12 06:28:37 GMT 38.530334 -5.122973 38,000 24 501 0
2018-07-12 06:28:31 GMT 38.517277 -5.130554 37,975 24 501 0
2018-07-12 06:28:28 GMT 38.510757 -5.134338 37,975 24 501 0
2018-07-12 06:28:20 GMT 38.493858 -5.144165 38,000 24 501 0
2018-07-12 06:28:17 GMT 38.488998 -5.147035 38,000 24 501 0
2018-07-12 06:28:11 GMT 38.472351 -5.156738 38,000 24 501 0
2018-07-12 06:28:07 GMT 38.466255 -5.160278 38,000 24 501 0
2018-07-12 06:28:00 GMT 38.451263 -5.169006 37,975 24 501 0
2018-07-12 06:27:57 GMT 38.444504 -5.172948 37,975 24 501 0
2018-07-12 06:27:50 GMT 38.430595 -5.181030 38,000 24 501 -64
2018-07-12 06:27:45 GMT 38.421066 -5.186562 38,000 24 501 0
2018-07-12 06:27:39 GMT 38.407597 -5.194443 38,000 24 501 0
2018-07-12 06:27:36 GMT 38.402298 -5.197468 38,000 24 501 0
2018-07-12 06:27:30 GMT 38.386696 -5.206564 38,000 24 501 0
2018-07-12 06:27:25 GMT 38.378906 -5.211084 38,000 24 501 0
2018-07-12 06:27:18 GMT 38.363480 -5.220025 38,000 24 501 0
2018-07-12 06:27:14 GMT 38.356529 -5.224059 38,000 24 501 0
2018-07-12 06:27:08 GMT 38.342007 -5.232537 38,000 24 501 0
2018-07-12 06:27:05 GMT 38.336933 -5.235463 38,000 24 501 0
2018-07-12 06:26:58 GMT 38.320499 -5.245016 38,000 24 501 0
2018-07-12 06:26:55 GMT 38.314819 -5.248360 38,000 24 501 0
2018-07-12 06:26:51 GMT 38.305344 -5.253861 38,000 24 501 0
2018-07-12 06:26:47 GMT 38.296246 -5.259108 38,000 24 501 0
2018-07-12 06:26:41 GMT 38.285957 -5.265138 38,000 24 501 0
2018-07-12 06:26:37 GMT 38.277065 -5.270273 38,000 24 501 0
2018-07-12 06:26:32 GMT 38.265472 -5.277002 38,000 24 501 0
2018-07-12 06:26:29 GMT 38.259384 -5.280567 38,000 24 501 0
2018-07-12 06:26:26 GMT 38.254951 -5.283170 38,000 24 501 0
2018-07-12 06:26:21 GMT 38.242081 -5.290618 38,000 24 501 0
2018-07-12 06:26:16 GMT 38.233658 -5.295469 38,000 24 501 0
2018-07-12 06:26:13 GMT 38.227570 -5.299033 38,000 24 500 0
2018-07-12 06:26:10 GMT 38.220829 -5.302933 38,000 24 501 0
2018-07-12 06:26:07 GMT 38.212189 -5.307916 38,000 24 500 0
2018-07-12 06:26:03 GMT 38.203514 -5.312964 38,000 24 499 0
2018-07-12 06:26:00 GMT 38.199097 -5.315513 38,000 24 500 0
2018-07-12 06:25:56 GMT 38.188797 -5.321473 38,000 24 499 0
2018-07-12 06:25:50 GMT 38.178452 -5.327376 38,000 24 499 0
2018-07-12 06:25:46 GMT 38.169434 -5.332635 38,000 24 499 0
2018-07-12 06:25:43 GMT 38.162888 -5.336375 38,000 24 499 0
2018-07-12 06:25:36 GMT 38.147919 -5.344966 38,000 24 499 0
2018-07-12 06:25:33 GMT 38.139271 -5.349984 38,000 24 499 0
2018-07-12 06:25:30 GMT 38.133823 -5.353088 38,000 24 499 0
2018-07-12 06:25:25 GMT 38.123703 -5.358932 38,000 24 500 0
2018-07-12 06:25:19 GMT 38.110474 -5.366588 38,000 24 499 -64
2018-07-12 06:25:13 GMT 38.100586 -5.372255 38,000 24 500 0
2018-07-12 06:25:09 GMT 38.087505 -5.379778 38,000 24 500 0
2018-07-12 06:25:03 GMT 38.079079 -5.384674 38,000 24 500 0
2018-07-12 06:24:57 GMT 38.065857 -5.392317 38,000 24 500 0
2018-07-12 06:24:53 GMT 38.058502 -5.396556 38,000 24 499 0
2018-07-12 06:24:47 GMT 38.044395 -5.404676 38,000 24 500 0
2018-07-12 06:24:42 GMT 38.035973 -5.409572 38,000 24 500 0
2018-07-12 06:24:39 GMT 38.029266 -5.413455 38,000 24 499 0
2018-07-12 06:24:36 GMT 38.022308 -5.417429 38,000 24 499 0
2018-07-12 06:24:32 GMT 38.014755 -5.421811 38,000 24 498 0
2018-07-12 06:24:27 GMT 38.000870 -5.429754 38,000 24 498 0
2018-07-12 06:24:22 GMT 37.992447 -5.434650 38,000 24 498 0
2018-07-12 06:24:18 GMT 37.981319 -5.441039 38,000 24 498 0
2018-07-12 06:24:15 GMT 37.973557 -5.445537 38,000 24 498 0
2018-07-12 06:24:11 GMT 37.970192 -5.447428 38,000 24 498 0
2018-07-12 06:24:06 GMT 37.958416 -5.454234 38,000 24 498 0
2018-07-12 06:24:01 GMT 37.948547 -5.459907 38,000 24 498 0
2018-07-12 06:23:57 GMT 37.939747 -5.464982 38,000 24 498 0
2018-07-12 06:23:53 GMT 37.930485 -5.470296 38,000 24 498 0
2018-07-12 06:23:50 GMT 37.926086 -5.472828 38,000 24 498 0
2018-07-12 06:23:47 GMT 37.919777 -5.476446 38,000 24 498 0
2018-07-12 06:23:44 GMT 37.913910 -5.479782 38,000 24 498 0
2018-07-12 06:23:40 GMT 37.903610 -5.485684 38,000 24 498 0
2018-07-12 06:23:35 GMT 37.890610 -5.493164 38,000 24 498 0
2018-07-12 06:23:32 GMT 37.887470 -5.494955 38,000 24 498 0
2018-07-12 06:23:29 GMT 37.880951 -5.498717 38,000 24 498 0
2018-07-12 06:23:26 GMT 37.875092 -5.502047 38,000 24 498 0
2018-07-12 06:23:23 GMT 37.867546 -5.506419 38,000 24 498 0
2018-07-12 06:23:20 GMT 37.861027 -5.510121 38,000 24 498 0
2018-07-12 06:23:17 GMT 37.857056 -5.512390 38,000 24 498 0
2018-07-12 06:23:13 GMT 37.846756 -5.518292 38,000 24 498 0
2018-07-12 06:23:09 GMT 37.839195 -5.522600 38,000 24 498 0
2018-07-12 06:23:05 GMT 37.831238 -5.527175 38,000 24 498 0
2018-07-12 06:23:02 GMT 37.821972 -5.532452 37,975 24 498 0
2018-07-12 06:22:59 GMT 37.818008 -5.534713 38,000 24 498 0
2018-07-12 06:22:55 GMT 37.809822 -5.539378 38,000 24 498 0
2018-07-12 06:22:52 GMT 37.803535 -5.542961 38,000 24 498 0
2018-07-12 06:22:49 GMT 37.795109 -5.547737 38,000 24 497 0
2018-07-12 06:22:46 GMT 37.792191 -5.549440 38,000 24 497 0
2018-07-12 06:22:43 GMT 37.783985 -5.554067 38,000 24 497 0
2018-07-12 06:22:40 GMT 37.778732 -5.557037 37,975 24 497 0
2018-07-12 06:22:35 GMT 37.768063 -5.563082 38,000 24 497 0
2018-07-12 06:22:32 GMT 37.762985 -5.565978 38,000 24 497 0
2018-07-12 06:22:29 GMT 37.756485 -5.569659 38,000 24 497 0
2018-07-12 06:22:23 GMT 37.742226 -5.577711 38,000 24 497 0
2018-07-12 06:22:20 GMT 37.736130 -5.581114 38,000 23 496 0
2018-07-12 06:22:16 GMT 37.729191 -5.584995 38,000 23 496 0
2018-07-12 06:22:13 GMT 37.722256 -5.588876 37,975 23 496 0
2018-07-12 06:22:10 GMT 37.716614 -5.592041 37,975 23 496 0
2018-07-12 06:22:07 GMT 37.708382 -5.596639 38,000 23 496 0
2018-07-12 06:22:04 GMT 37.701874 -5.600281 38,000 23 496 0
2018-07-12 06:22:00 GMT 37.693680 -5.604839 38,000 23 496 0
2018-07-12 06:21:57 GMT 37.687805 -5.608162 38,000 23 496 0
2018-07-12 06:21:54 GMT 37.683380 -5.610624 38,000 23 496 0
2018-07-12 06:21:51 GMT 37.675186 -5.615182 37,975 23 496 0
2018-07-12 06:21:48 GMT 37.668720 -5.618850 38,000 23 496 0
2018-07-12 06:21:42 GMT 37.654011 -5.627090 37,975 24 497 0
2018-07-12 06:21:37 GMT 37.647263 -5.630844 37,975 24 497 0
2018-07-12 06:21:34 GMT 37.640350 -5.634759 38,000 24 497 0
2018-07-12 06:21:31 GMT 37.633202 -5.638793 38,000 25 499 0
2018-07-12 06:21:27 GMT 37.626114 -5.642882 38,000 24 497 0
2018-07-12 06:21:24 GMT 37.618771 -5.647092 38,000 24 497 0
2018-07-12 06:21:20 GMT 37.610413 -5.651940 37,975 25 499 0
2018-07-12 06:21:17 GMT 37.604759 -5.655272 37,975 25 498 0
2018-07-12 06:21:14 GMT 37.598103 -5.659213 38,000 25 499 0
2018-07-12 06:21:10 GMT 37.590794 -5.663631 38,000 25 499 0
2018-07-12 06:21:07 GMT 37.583111 -5.668229 38,000 25 499 0
2018-07-12 06:21:04 GMT 37.578503 -5.671035 38,000 25 499 0
2018-07-12 06:21:01 GMT 37.568710 -5.676893 38,000 25 498 0
2018-07-12 06:20:58 GMT 37.565796 -5.678678 38,000 25 498 0
2018-07-12 06:20:54 GMT 37.557461 -5.683634 38,000 25 500 0
2018-07-12 06:20:51 GMT 37.548935 -5.688814 38,000 25 500 0
2018-07-12 06:20:48 GMT 37.543308 -5.692172 38,000 25 500 0
2018-07-12 06:20:44 GMT 37.535568 -5.696820 37,975 25 500 0
2018-07-12 06:20:41 GMT 37.529110 -5.700710 38,000 25 500 0
2018-07-12 06:20:38 GMT 37.522430 -5.704709 37,975 25 500 0
2018-07-12 06:20:35 GMT 37.518265 -5.707222 38,000 25 500 0
2018-07-12 06:20:32 GMT 37.511608 -5.711219 38,000 25 500 0
2018-07-12 06:20:29 GMT 37.504944 -5.715228 38,000 25 500 0
2018-07-12 06:20:25 GMT 37.496567 -5.720312 38,000 25 500 0
2018-07-12 06:20:20 GMT 37.483429 -5.728260 38,000 25 499 -64
2018-07-12 06:20:16 GMT 37.477158 -5.732057 38,000 23 498 -64
2018-07-12 06:20:13 GMT 37.470886 -5.735623 38,000 23 498 0
2018-07-12 06:20:10 GMT 37.464729 -5.738983 38,000 22 497 0
2018-07-12 06:20:07 GMT 37.458160 -5.742402 38,000 21 496 0
2018-07-12 06:20:04 GMT 37.453465 -5.744775 38,000 20 495 0
2018-07-12 06:20:00 GMT 37.443359 -5.749492 38,000 18 493 -64
2018-07-12 06:19:57 GMT 37.436424 -5.752537 38,000 17 493 0
2018-07-12 06:19:54 GMT 37.430794 -5.754866 38,000 17 492 0
2018-07-12 06:19:51 GMT 37.424274 -5.757373 38,000 13 488 0
2018-07-12 06:19:48 GMT 37.418362 -5.759583 38,000 14 489 -64
2018-07-12 06:19:45 GMT 37.410915 -5.762150 38,000 13 488 0
2018-07-12 06:19:42 GMT 37.404327 -5.764258 38,000 13 488 0
2018-07-12 06:19:39 GMT 37.395321 -5.766927 38,000 12 486 -64
2018-07-12 06:19:36 GMT 37.390476 -5.768240 38,000 11 485 -64
2018-07-12 06:19:33 GMT 37.383820 -5.769912 38,000 9 485 0
2018-07-12 06:19:28 GMT 37.373440 -5.772121 38,000 8 483 0
2018-07-12 06:19:25 GMT 37.365479 -5.773614 38,000 8 484 0
2018-07-12 06:19:21 GMT 37.357498 -5.775069 38,000 8 484 0
2018-07-12 06:19:18 GMT 37.350208 -5.776420 37,975 8 484 0
2018-07-12 06:19:15 GMT 37.344902 -5.777376 37,975 8 484 0
2018-07-12 06:19:12 GMT 37.338898 -5.778450 38,000 8 484 0
2018-07-12 06:19:09 GMT 37.330719 -5.779977 38,000 8 483 0
2018-07-12 06:19:05 GMT 37.322746 -5.781436 38,000 8 484 0
2018-07-12 06:19:01 GMT 37.310989 -5.783542 38,000 8 484 0
2018-07-12 06:18:58 GMT 37.305008 -5.784600 38,000 8 484 0
2018-07-12 06:18:55 GMT 37.299469 -5.785615 38,000 8 484 0
2018-07-12 06:18:48 GMT 37.281548 -5.788899 37,975 8 484 0
2018-07-12 06:18:45 GMT 37.277069 -5.789736 38,000 8 483 0
2018-07-12 06:18:41 GMT 37.269768 -5.791049 38,000 8 483 0
2018-07-12 06:18:37 GMT 37.258923 -5.793019 38,000 8 484 0
2018-07-12 06:18:34 GMT 37.254498 -5.793795 38,000 8 484 0
2018-07-12 06:18:31 GMT 37.247360 -5.795113 38,000 8 484 0
2018-07-12 06:18:28 GMT 37.238716 -5.796661 38,000 8 484 0
2018-07-12 06:18:25 GMT 37.232292 -5.797796 38,000 8 484 0
2018-07-12 06:18:19 GMT 37.220749 -5.799886 38,000 8 483 0
2018-07-12 06:18:15 GMT 37.208786 -5.802095 38,000 8 484 0
2018-07-12 06:18:11 GMT 37.200127 -5.803647 38,000 8 484 0
2018-07-12 06:18:06 GMT 37.191238 -5.805223 38,000 8 484 0
2018-07-12 06:18:03 GMT 37.184624 -5.806454 38,000 8 484 0
2018-07-12 06:18:00 GMT 37.175720 -5.808028 38,000 8 484 0
2018-07-12 06:17:56 GMT 37.168610 -5.809320 38,000 8 484 0
2018-07-12 06:17:53 GMT 37.161987 -5.810540 38,000 8 484 0
2018-07-12 06:17:49 GMT 37.151340 -5.812424 38,000 8 484 0
2018-07-12 06:17:46 GMT 37.145554 -5.813462 38,000 8 484 0
2018-07-12 06:17:43 GMT 37.140015 -5.814456 38,000 8 484 0
2018-07-12 06:17:40 GMT 37.134254 -5.815529 38,000 8 484 0
2018-07-12 06:17:37 GMT 37.127365 -5.816723 38,000 8 484 0
2018-07-12 06:17:34 GMT 37.117813 -5.818430 38,000 8 484 0
2018-07-12 06:17:30 GMT 37.110699 -5.819709 38,000 8 484 0
2018-07-12 06:17:27 GMT 37.104507 -5.820843 38,000 8 484 0
2018-07-12 06:17:24 GMT 37.098495 -5.821877 38,000 8 484 0
2018-07-12 06:17:19 GMT 37.087421 -5.823888 37,975 8 484 0
2018-07-12 06:17:16 GMT 37.079651 -5.825262 38,000 8 485 -64
2018-07-12 06:17:13 GMT 37.072311 -5.826611 38,000 8 484 -64
2018-07-12 06:17:08 GMT 37.061214 -5.828605 38,000 8 484 0
2018-07-12 06:17:05 GMT 37.055191 -5.829708 38,000 8 484 0
2018-07-12 06:16:58 GMT 37.041012 -5.832248 38,000 8 484 0
2018-07-12 06:16:55 GMT 37.031700 -5.833919 38,000 8 484 -64
2018-07-12 06:16:51 GMT 37.022598 -5.835552 38,000 8 484 0
2018-07-12 06:16:46 GMT 37.013264 -5.837263 38,000 8 483 0
2018-07-12 06:16:42 GMT 37.004379 -5.838824 38,000 8 483 0
2018-07-12 06:16:38 GMT 36.995762 -5.840428 38,000 8 483 0
2018-07-12 06:16:35 GMT 36.987076 -5.841980 38,000 8 483 0
2018-07-12 06:16:32 GMT 36.982216 -5.842876 38,000 8 483 0
2018-07-12 06:16:28 GMT 36.974674 -5.844189 38,000 8 483 0
2018-07-12 06:16:25 GMT 36.966061 -5.845742 38,000 8 483 0
2018-07-12 06:16:21 GMT 36.958286 -5.847175 38,000 8 483 0
2018-07-12 06:16:15 GMT 36.945019 -5.849563 38,000 8 483 0
2018-07-12 06:16:12 GMT 36.936176 -5.851175 38,000 8 483 0
2018-07-12 06:16:07 GMT 36.927097 -5.852787 38,000 8 483 0
2018-07-12 06:16:03 GMT 36.917786 -5.854519 38,000 8 483 0
2018-07-12 06:16:00 GMT 36.911362 -5.855654 37,975 8 483 0
2018-07-12 06:15:56 GMT 36.902519 -5.857265 38,000 8 483 0
2018-07-12 06:15:53 GMT 36.895660 -5.858518 38,000 8 483 0
2018-07-12 06:15:50 GMT 36.889065 -5.859773 38,000 8 483 0
2018-07-12 06:15:43 GMT 36.873795 -5.862520 38,000 8 483 0
2018-07-12 06:15:40 GMT 36.867371 -5.863654 38,000 8 482 0
2018-07-12 06:15:36 GMT 36.857224 -5.865505 38,000 8 482 0
2018-07-12 06:15:32 GMT 36.849262 -5.866991 38,000 8 481 0
2018-07-12 06:15:25 GMT 36.834732 -5.869617 38,000 8 481 0
2018-07-12 06:15:22 GMT 36.828323 -5.870762 38,000 8 481 -64
2018-07-12 06:15:14 GMT 36.806717 -5.874653 38,000 8 480 0
2018-07-12 06:15:11 GMT 36.804062 -5.875111 38,000 8 480 0
2018-07-12 06:15:04 GMT 36.785995 -5.878387 38,000 8 480 0
2018-07-12 06:15:01 GMT 36.781574 -5.879146 38,000 8 480 0
2018-07-12 06:14:58 GMT 36.772980 -5.880661 38,000 8 480 0
2018-07-12 06:14:54 GMT 36.766632 -5.881835 38,000 8 480 0
2018-07-12 06:14:51 GMT 36.757828 -5.883408 38,000 8 480 0
2018-07-12 06:14:43 GMT 36.742630 -5.886097 38,000 8 479 0
2018-07-12 06:14:40 GMT 36.735397 -5.887356 38,000 8 479 0
2018-07-12 06:14:33 GMT 36.720200 -5.890045 38,000 8 479 0
2018-07-12 06:14:30 GMT 36.713375 -5.891243 38,000 8 479 0
2018-07-12 06:14:23 GMT 36.698666 -5.893873 38,000 8 479 0
2018-07-12 06:14:20 GMT 36.690750 -5.895275 38,000 8 478 0
2018-07-12 06:14:17 GMT 36.683769 -5.896503 38,000 8 478 0
2018-07-12 06:14:11 GMT 36.670128 -5.898957 38,000 8 478 0
2018-07-12 06:14:03 GMT 36.652393 -5.902171 38,000 8 478 0
2018-07-12 06:14:00 GMT 36.647785 -5.902989 38,000 8 478 0
2018-07-12 06:13:52 GMT 36.630001 -5.906203 38,000 8 478 0
2018-07-12 06:13:48 GMT 36.621048 -5.907784 38,000 8 478 0
2018-07-12 06:13:42 GMT 36.608307 -5.910060 38,000 8 477 0
2018-07-12 06:13:39 GMT 36.601547 -5.911274 38,000 8 477 0
2018-07-12 06:13:32 GMT 36.585777 -5.914092 38,000 8 477 0
2018-07-12 06:13:29 GMT 36.578094 -5.915436 38,000 8 477 0
2018-07-12 06:13:22 GMT 36.562820 -5.918140 38,000 8 477 0
2018-07-12 06:13:19 GMT 36.556000 -5.919342 38,000 8 477 0
2018-07-12 06:13:11 GMT 36.541122 -5.921974 38,000 8 477 0
2018-07-12 06:13:08 GMT 36.531494 -5.923618 38,000 8 477 0
2018-07-12 06:13:01 GMT 36.518181 -5.925955 38,000 8 477 0
2018-07-12 06:12:58 GMT 36.512737 -5.926949 38,000 8 477 0
2018-07-12 06:12:51 GMT 36.496536 -5.929754 38,000 8 476 0
2018-07-12 06:12:48 GMT 36.490204 -5.930864 38,000 8 476 0
2018-07-12 06:12:45 GMT 36.483627 -5.932045 38,000 8 476 0
2018-07-12 06:12:41 GMT 36.473785 -5.933819 38,000 8 476 0
2018-07-12 06:12:38 GMT 36.465950 -5.935188 38,000 8 476 0
2018-07-12 06:12:31 GMT 36.451519 -5.937760 38,000 8 477 0
2018-07-12 06:12:27 GMT 36.443893 -5.939140 38,000 8 477 0
2018-07-12 06:12:20 GMT 36.429268 -5.941792 38,000 8 477 0
2018-07-12 06:12:17 GMT 36.420731 -5.943317 38,000 8 477 0
2018-07-12 06:12:10 GMT 36.407433 -5.945766 38,000 8 476 0
2018-07-12 06:12:07 GMT 36.400871 -5.946934 38,000 8 476 0
2018-07-12 06:12:00 GMT 36.385181 -5.949798 38,000 8 476 0
2018-07-12 06:11:57 GMT 36.377975 -5.951157 38,000 8 476 0
2018-07-12 06:11:48 GMT 36.357716 -5.954882 38,000 8 476 0
2018-07-12 06:11:39 GMT 36.337887 -5.958505 38,000 8 476 0
2018-07-12 06:11:36 GMT 36.331135 -5.959732 38,000 7 474 0
2018-07-12 06:11:29 GMT 36.314621 -5.962715 37,975 7 474 0
2018-07-12 06:11:26 GMT 36.311554 -5.963287 37,975 7 474 0
2018-07-12 06:11:19 GMT 36.296310 -5.965919 37,975 10 477 0
2018-07-12 06:11:16 GMT 36.289169 -5.967407 38,000 11 478 0
2018-07-12 06:11:10 GMT 36.275925 -5.970836 38,000 12 480 0
2018-07-12 06:11:07 GMT 36.270309 -5.972557 38,000 15 483 0
2018-07-12 06:11:04 GMT 36.264496 -5.974503 38,000 17 485 0
2018-07-12 06:10:57 GMT 36.248291 -5.980968 38,000 20 488 0
2018-07-12 06:10:54 GMT 36.242409 -5.983750 38,000 30 495 64
2018-07-12 06:10:48 GMT 36.230118 -5.990124 38,000 25 491 0
2018-07-12 06:10:44 GMT 36.221878 -5.994912 38,000 30 495 64
2018-07-12 06:10:38 GMT 36.210022 -6.002712 38,000 31 495 64
2018-07-12 06:10:34 GMT 36.202332 -6.008320 38,000 32 496 64
2018-07-12 06:10:27 GMT 36.187775 -6.020279 38,000 35 498 0
2018-07-12 06:10:24 GMT 36.183285 -6.024189 38,000 35 498 0
2018-07-12 06:10:16 GMT 36.166855 -6.038361 37,975 35 497 0
2018-07-12 06:10:12 GMT 36.159309 -6.044935 38,000 35 498 0
2018-07-12 06:10:06 GMT 36.147999 -6.054694 37,975 35 498 0
2018-07-12 06:10:03 GMT 36.144043 -6.058083 38,000 35 498 0
2018-07-12 06:09:55 GMT 36.128220 -6.071777 38,000 34 497 0
2018-07-12 06:09:52 GMT 36.122910 -6.076355 38,000 34 497 0
2018-07-12 06:09:45 GMT 36.108948 -6.088371 37,975 34 497 0
2018-07-12 06:09:42 GMT 36.104240 -6.092386 37,975 34 497 0
2018-07-12 06:09:37 GMT 36.093624 -6.101503 37,975 34 497 0
2018-07-12 06:09:33 GMT 36.086082 -6.107989 37,975 34 497 0
2018-07-12 06:09:27 GMT 36.074539 -6.117807 38,000 34 497 0
2018-07-12 06:09:24 GMT 36.070583 -6.121196 38,000 34 497 0
2018-07-12 06:09:20 GMT 36.062248 -6.128326 38,000 34 497 0
2018-07-12 06:09:14 GMT 36.050308 -6.138325 38,000 34 497 0
2018-07-12 06:09:11 GMT 36.045586 -6.142526 37,975 34 497 0
2018-07-12 06:09:06 GMT 36.035568 -6.150913 37,975 34 497 0
2018-07-12 06:09:03 GMT 36.030270 -6.155616 38,000 34 497 0
2018-07-12 06:08:59 GMT 36.022476 -6.162243 38,000 34 498 0
2018-07-12 06:08:56 GMT 36.015884 -6.167850 38,000 34 498 0
2018-07-12 06:08:53 GMT 36.010574 -6.172371 38,000 34 498 0
2018-07-12 06:08:50 GMT 36.005997 -6.176205 38,000 34 498 0
2018-07-12 06:08:46 GMT 35.997868 -6.183141 38,000 34 498 0
2018-07-12 06:08:43 GMT 35.991623 -6.188450 38,000 34 498 0
2018-07-12 06:08:39 GMT 35.984413 -6.194594 37,975 30 495 0
2018-07-12 06:08:35 GMT 35.977020 -6.200867 37,975 34 498 0
2018-07-12 06:08:31 GMT 35.968094 -6.208420 37,975 34 498 0
2018-07-12 06:08:25 GMT 35.956902 -6.217911 38,000 34 498 0
2018-07-12 06:08:22 GMT 35.952164 -6.221924 38,000 34 498 -64
2018-07-12 06:08:19 GMT 35.945709 -6.227417 38,000 33 497 -64
2018-07-12 06:08:15 GMT 35.938465 -6.233397 38,000 32 496 -64
2018-07-12 06:08:12 GMT 35.932297 -6.238346 38,000 30 495 -64
2018-07-12 06:08:09 GMT 35.927807 -6.241754 38,000 30 495 -64
2018-07-12 06:08:05 GMT 35.918152 -6.248817 37,975 30 494 0
2018-07-12 06:08:01 GMT 35.911789 -6.253338 38,000 30 495 0
2018-07-12 06:07:57 GMT 35.903870 -6.258945 38,000 30 494 0
2018-07-12 06:07:52 GMT 35.893387 -6.266441 38,000 30 494 0
2018-07-12 06:07:49 GMT 35.886841 -6.271148 38,000 30 495 0
2018-07-12 06:07:44 GMT 35.876926 -6.278219 38,000 30 495 0
2018-07-12 06:07:41 GMT 35.871803 -6.281959 38,000 30 494 0
2018-07-12 06:07:38 GMT 35.863937 -6.287686 38,000 30 495 0
2018-07-12 06:07:33 GMT 35.856812 -6.292820 38,000 30 495 0
2018-07-12 06:07:30 GMT 35.848572 -6.298943 38,000 31 495 0
2018-07-12 06:07:27 GMT 35.843079 -6.303177 38,000 31 495 0
2018-07-12 06:07:24 GMT 35.838196 -6.306678 38,000 31 495 0
2018-07-12 06:07:21 GMT 35.831722 -6.311529 38,000 31 495 0
2018-07-12 06:07:16 GMT 35.821930 -6.318855 37,975 31 495 0
2018-07-12 06:07:13 GMT 35.816849 -6.322689 37,975 31 495 0
2018-07-12 06:07:10 GMT 35.811565 -6.326664 37,975 31 495 0
2018-07-12 06:07:03 GMT 35.797073 -6.337566 37,975 31 495 0
2018-07-12 06:07:00 GMT 35.789825 -6.343027 37,975 31 496 0
2018-07-12 06:06:56 GMT 35.782192 -6.348754 38,000 31 496 0
2018-07-12 06:06:53 GMT 35.777073 -6.352552 37,975 31 496 0
2018-07-12 06:06:49 GMT 35.767639 -6.359596 38,000 31 496 0
2018-07-12 06:06:46 GMT 35.763756 -6.362545 38,000 31 496 0
2018-07-12 06:06:42 GMT 35.757053 -6.367512 38,000 31 495 0
2018-07-12 06:06:39 GMT 35.750381 -6.372471 38,000 31 495 0
2018-07-12 06:06:36 GMT 35.742947 -6.378031 38,000 31 495 0
2018-07-12 06:06:33 GMT 35.736649 -6.382713 38,000 31 495 0
2018-07-12 06:06:30 GMT 35.731544 -6.386621 38,000 31 496 0
2018-07-12 06:06:25 GMT 35.722321 -6.393356 38,000 31 496 0
2018-07-12 06:06:22 GMT 35.717010 -6.397305 38,000 31 496 0
2018-07-12 06:06:19 GMT 35.709385 -6.403042 38,000 31 496 0
2018-07-12 06:06:12 GMT 35.697418 -6.411983 38,000 31 495 0
2018-07-12 06:06:08 GMT 35.688808 -6.418412 38,000 31 495 0
2018-07-12 06:06:05 GMT 35.681732 -6.423554 38,000 31 496 0
2018-07-12 06:06:02 GMT 35.677048 -6.427231 38,000 31 496 0
2018-07-12 06:05:57 GMT 35.667252 -6.434555 38,000 31 496 0
2018-07-12 06:05:54 GMT 35.659607 -6.440277 38,000 31 496 0
2018-07-12 06:05:51 GMT 35.656677 -6.442451 38,000 31 496 0
2018-07-12 06:05:48 GMT 35.651146 -6.446520 38,000 31 496 0
2018-07-12 06:05:42 GMT 35.636673 -6.457329 38,000 31 495 0
2018-07-12 06:05:38 GMT 35.630997 -6.461563 38,000 31 495 0
2018-07-12 06:05:34 GMT 35.620972 -6.469059 38,000 31 495 0
2018-07-12 06:05:31 GMT 35.616699 -6.472233 38,000 31 495 0
2018-07-12 06:05:28 GMT 35.611404 -6.476212 38,000 31 495 0
2018-07-12 06:05:21 GMT 35.596680 -6.487193 38,000 31 495 0
2018-07-12 06:05:18 GMT 35.590622 -6.491718 38,000 31 495 0
2018-07-12 06:05:11 GMT 35.577316 -6.501686 38,000 31 495 0
2018-07-12 06:05:07 GMT 35.568890 -6.507997 38,000 31 495 0
2018-07-12 06:05:00 GMT 35.556973 -6.516938 38,000 31 495 0
2018-07-12 06:04:57 GMT 35.549896 -6.522197 38,000 31 495 0
2018-07-12 06:04:51 GMT 35.536972 -6.531830 38,000 31 496 0
2018-07-12 06:04:45 GMT 35.527180 -6.539144 37,975 31 496 0
2018-07-12 06:04:40 GMT 35.516785 -6.546879 37,975 31 496 0
2018-07-12 06:04:37 GMT 35.509918 -6.552143 37,975 31 496 0
2018-07-12 06:04:30 GMT 35.496597 -6.561928 37,975 31 496 -64
2018-07-12 06:04:25 GMT 35.487946 -6.568336 37,975 31 496 0
2018-07-12 06:04:19 GMT 35.476593 -6.576805 38,000 31 496 0
2018-07-12 06:04:16 GMT 35.468170 -6.583099 38,000 31 496 0
2018-07-12 06:04:09 GMT 35.456791 -6.591622 38,000 31 496 0
2018-07-12 06:04:05 GMT 35.448177 -6.598050 38,000 31 496 0
2018-07-12 06:03:59 GMT 35.436401 -6.606789 38,000 31 496 0
2018-07-12 06:03:54 GMT 35.427368 -6.613536 38,000 31 495 0
2018-07-12 06:03:49 GMT 35.416763 -6.621380 37,975 31 495 0
2018-07-12 06:03:45 GMT 35.407352 -6.628321 37,975 31 495 0
2018-07-12 06:03:39 GMT 35.396927 -6.636034 38,000 31 495 0
2018-07-12 06:03:33 GMT 35.386543 -6.643748 38,000 31 495 0
2018-07-12 06:03:28 GMT 35.376118 -6.651462 38,000 31 495 0
2018-07-12 06:03:23 GMT 35.366501 -6.658516 38,000 31 495 0
2018-07-12 06:03:19 GMT 35.356293 -6.666069 38,000 31 495 0
2018-07-12 06:03:13 GMT 35.346680 -6.673222 38,000 31 495 0
2018-07-12 06:03:08 GMT 35.335876 -6.681175 38,000 31 495 0
2018-07-12 06:03:03 GMT 35.326630 -6.687986 38,000 31 495 0
2018-07-12 06:02:58 GMT 35.316063 -6.695816 38,000 31 495 0
2018-07-12 06:02:53 GMT 35.306240 -6.703063 37,975 31 496 0
2018-07-12 06:02:48 GMT 35.296783 -6.710014 38,000 31 496 0
2018-07-12 06:02:42 GMT 35.285572 -6.718315 38,000 31 496 0
2018-07-12 06:02:38 GMT 35.275772 -6.725521 38,000 31 496 0
2018-07-12 06:02:32 GMT 35.265930 -6.732788 38,000 31 495 0
2018-07-12 06:02:27 GMT 35.255360 -6.740580 38,000 31 495 0
2018-07-12 06:02:21 GMT 35.244919 -6.748295 38,000 31 496 0
2018-07-12 06:02:16 GMT 35.234894 -6.755676 38,000 31 496 0
2018-07-12 06:02:12 GMT 35.225471 -6.762657 37,975 31 496 0
2018-07-12 06:02:06 GMT 35.215046 -6.770325 37,975 31 496 0
2018-07-12 06:02:02 GMT 35.205223 -6.777763 38,000 31 496 0
2018-07-12 06:01:56 GMT 35.194611 -6.785431 38,000 31 496 0
2018-07-12 06:01:51 GMT 35.185181 -6.792409 38,000 31 496 0
2018-07-12 06:01:45 GMT 35.173553 -6.800929 38,000 31 496 0
2018-07-12 06:01:40 GMT 35.163326 -6.808491 38,000 31 496 0
2018-07-12 06:01:37 GMT 35.155460 -6.814270 38,000 31 497 0
2018-07-12 06:01:34 GMT 35.152527 -6.816444 38,000 31 497 0
2018-07-12 06:01:31 GMT 35.143078 -6.823425 38,000 31 497 0
2018-07-12 06:01:24 GMT 35.131485 -6.832008 38,000 31 496 -64
2018-07-12 06:01:20 GMT 35.123428 -6.837924 38,000 31 496 0
2018-07-12 06:01:15 GMT 35.112762 -6.845772 38,000 31 496 0
2018-07-12 06:01:10 GMT 35.103924 -6.852264 38,000 31 497 0
2018-07-12 06:01:04 GMT 35.092522 -6.860676 38,000 31 496 0
2018-07-12 06:01:00 GMT 35.083694 -6.867184 38,000 31 496 0
2018-07-12 06:00:54 GMT 35.072296 -6.875592 38,000 31 496 0
2018-07-12 06:00:49 GMT 35.062820 -6.882542 38,000 31 496 0
2018-07-12 06:00:43 GMT 35.051010 -6.891230 38,000 31 496 -64
2018-07-12 06:00:38 GMT 35.041580 -6.898125 38,000 31 496 0
2018-07-12 06:00:35 GMT 35.035492 -6.902618 38,000 31 496 0
2018-07-12 06:00:32 GMT 35.030548 -6.906252 38,000 31 496 0
2018-07-12 06:00:28 GMT 35.022491 -6.912138 37,975 31 496 0
2018-07-12 06:00:25 GMT 35.015617 -6.917210 37,975 31 496 0
2018-07-12 06:00:22 GMT 35.009331 -6.921844 37,975 31 496 0
2018-07-12 06:00:19 GMT 35.002022 -6.927338 38,000 31 496 0
2018-07-12 06:00:15 GMT 34.995132 -6.932201 37,975 31 496 0
2018-07-12 06:00:11 GMT 34.989220 -6.936550 38,000 31 496 0
2018-07-12 06:00:08 GMT 34.982574 -6.941454 38,000 31 496 0
2018-07-12 06:00:02 GMT 34.968979 -6.951375 38,000 31 496 0
2018-07-12 05:59:58 GMT 34.962082 -6.956406 38,000 31 496 0
2018-07-12 05:59:54 GMT 34.955193 -6.961441 38,000 31 496 0
2018-07-12 05:59:51 GMT 34.948700 -6.966173 38,000 31 496 0
2018-07-12 05:59:47 GMT 34.941597 -6.971340 38,000 31 496 0
2018-07-12 05:59:44 GMT 34.934738 -6.976374 38,000 30 495 0
2018-07-12 05:59:40 GMT 34.928055 -6.981251 38,000 30 495 0
2018-07-12 05:59:37 GMT 34.921162 -6.986275 38,000 30 495 0
2018-07-12 05:59:34 GMT 34.914871 -6.990892 38,000 30 495 0
2018-07-12 05:59:31 GMT 34.907593 -6.996049 38,000 31 496 0
2018-07-12 05:59:27 GMT 34.901096 -7.000923 38,000 31 496 0
2018-07-12 05:59:24 GMT 34.894627 -7.005672 38,000 30 495 0
2018-07-12 05:59:20 GMT 34.887550 -7.010822 38,000 30 495 0
2018-07-12 05:59:17 GMT 34.881451 -7.015285 38,000 30 495 0
2018-07-12 05:59:13 GMT 34.874748 -7.020149 38,000 30 495 0
2018-07-12 05:59:08 GMT 34.864517 -7.027551 38,000 30 495 0
2018-07-12 05:59:03 GMT 34.854675 -7.034725 38,000 30 495 0
2018-07-12 05:58:59 GMT 34.846252 -7.040835 38,000 30 495 0
2018-07-12 05:58:56 GMT 34.839928 -7.045441 38,000 30 495 0
2018-07-12 05:58:53 GMT 34.834259 -7.049579 38,000 30 495 0
2018-07-12 05:58:47 GMT 34.823635 -7.057285 38,000 30 495 0
2018-07-12 05:58:42 GMT 34.814182 -7.064095 38,000 30 495 0
2018-07-12 05:58:37 GMT 34.803200 -7.072048 38,000 30 495 0
2018-07-12 05:58:33 GMT 34.794113 -7.078446 38,000 30 495 0
2018-07-12 05:58:26 GMT 34.782532 -7.087022 38,000 30 495 0
2018-07-12 05:58:22 GMT 34.774475 -7.092852 38,000 30 495 0
2018-07-12 05:58:17 GMT 34.764839 -7.099857 38,000 31 494 0
2018-07-12 05:58:14 GMT 34.758957 -7.104119 38,000 31 494 0
2018-07-12 05:58:10 GMT 34.750500 -7.110271 38,000 30 495 0
2018-07-12 05:58:07 GMT 34.744820 -7.114449 38,000 30 495 0
2018-07-12 05:58:04 GMT 34.739513 -7.118454 38,000 30 495 0
2018-07-12 05:58:01 GMT 34.733601 -7.122574 38,000 30 495 0
2018-07-12 05:57:55 GMT 34.719639 -7.132702 38,000 30 495 0
2018-07-12 05:57:51 GMT 34.714142 -7.136685 38,000 30 495 0
2018-07-12 05:57:45 GMT 34.702148 -7.145373 38,000 30 495 0
2018-07-12 05:57:42 GMT 34.694080 -7.151241 38,000 30 495 0
2018-07-12 05:57:35 GMT 34.682255 -7.159824 37,975 30 495 0
2018-07-12 05:57:31 GMT 34.674389 -7.165489 37,975 30 495 0
2018-07-12 05:57:25 GMT 34.662006 -7.174530 37,975 30 495 0
2018-07-12 05:57:21 GMT 34.653580 -7.180653 37,975 31 496 0
2018-07-12 05:57:15 GMT 34.641586 -7.189375 38,000 31 495 -64
2018-07-12 05:57:11 GMT 34.634308 -7.194700 38,000 31 495 0
2018-07-12 05:57:03 GMT 34.618431 -7.206287 38,000 31 495 0
2018-07-12 05:57:00 GMT 34.612152 -7.210899 38,000 31 494 0
2018-07-12 05:56:55 GMT 34.601906 -7.218304 38,000 31 494 0
2018-07-12 05:56:51 GMT 34.593292 -7.224576 38,000 31 494 0
2018-07-12 05:56:43 GMT 34.580521 -7.233880 38,000 30 494 0
2018-07-12 05:56:40 GMT 34.573654 -7.238869 38,000 30 494 0
2018-07-12 05:56:33 GMT 34.560707 -7.248230 38,000 30 494 0
2018-07-12 05:56:29 GMT 34.552841 -7.253895 38,000 30 494 0
2018-07-12 05:56:23 GMT 34.540085 -7.263165 38,000 30 494 0
2018-07-12 05:56:19 GMT 34.533234 -7.268129 38,000 30 494 0
2018-07-12 05:56:13 GMT 34.520485 -7.277355 38,000 30 494 0
2018-07-12 05:56:10 GMT 34.514603 -7.281581 38,000 30 494 0
2018-07-12 05:56:02 GMT 34.497723 -7.293777 38,000 30 493 0
2018-07-12 05:55:59 GMT 34.494003 -7.296491 38,000 30 493 0
2018-07-12 05:55:51 GMT 34.476562 -7.309047 38,000 30 492 0
2018-07-12 05:55:40 GMT 34.455780 -7.324069 38,000 30 492 0
2018-07-12 05:55:37 GMT 34.450474 -7.327881 38,000 30 492 0
2018-07-12 05:55:30 GMT 34.434040 -7.339725 38,000 30 492 0
2018-07-12 05:55:27 GMT 34.430328 -7.342455 38,000 30 492 0
2018-07-12 05:55:19 GMT 34.413300 -7.354730 38,000 30 492 0
2018-07-12 05:55:09 GMT 34.394531 -7.368239 38,000 30 492 0
2018-07-12 05:55:01 GMT 34.377941 -7.380238 38,000 30 491 0
2018-07-12 05:54:58 GMT 34.374405 -7.382755 38,000 30 491 0
2018-07-12 05:54:55 GMT 34.368164 -7.387297 38,000 30 491 0
2018-07-12 05:54:50 GMT 34.357819 -7.394752 38,000 30 491 0
2018-07-12 05:54:47 GMT 34.353130 -7.398090 38,000 30 491 0
2018-07-12 05:54:38 GMT 34.334152 -7.411736 38,000 30 491 0
2018-07-12 05:54:28 GMT 34.312675 -7.427158 38,000 30 491 0
2018-07-12 05:54:20 GMT 34.299042 -7.436959 38,000 30 490 0
2018-07-12 05:54:17 GMT 34.294147 -7.440491 38,000 30 491 0
2018-07-12 05:54:10 GMT 34.279541 -7.450973 38,000 30 490 0
2018-07-12 05:54:06 GMT 34.272720 -7.455849 38,000 30 490 0
2018-07-12 05:53:57 GMT 34.252625 -7.470303 38,000 30 490 0
2018-07-12 05:53:48 GMT 34.236877 -7.481577 38,000 30 489 0
2018-07-12 05:53:45 GMT 34.231613 -7.485389 37,975 30 489 0
2018-07-12 05:53:36 GMT 34.214630 -7.497496 38,000 30 489 0
2018-07-12 05:53:29 GMT 34.199650 -7.508183 38,000 30 489 0
2018-07-12 05:53:26 GMT 34.194946 -7.511559 38,000 30 489 0
2018-07-12 05:53:21 GMT 34.185608 -7.518180 38,000 30 489 0
2018-07-12 05:53:18 GMT 34.178978 -7.522945 38,000 30 488 0
2018-07-12 05:53:15 GMT 34.173523 -7.526812 38,000 30 488 0
2018-07-12 05:53:06 GMT 34.155853 -7.539480 38,000 30 488 0
2018-07-12 05:53:03 GMT 34.149605 -7.543888 38,000 30 488 0
2018-07-12 05:52:56 GMT 34.135220 -7.554188 38,000 30 488 0
2018-07-12 05:52:53 GMT 34.129990 -7.557977 38,000 30 488 0
2018-07-12 05:52:50 GMT 34.124142 -7.562141 38,000 30 488 0
2018-07-12 05:52:45 GMT 34.114223 -7.569237 37,975 30 489 0
2018-07-12 05:52:42 GMT 34.109161 -7.572831 37,975 30 489 0
2018-07-12 05:52:37 GMT 34.099422 -7.579765 37,975 30 489 0
2018-07-12 05:52:34 GMT 34.092392 -7.584801 37,975 30 489 0
2018-07-12 05:52:25 GMT 34.075260 -7.596989 38,000 30 489 0
2018-07-12 05:52:14 GMT 34.054031 -7.612152 38,000 30 490 0
2018-07-12 05:52:06 GMT 34.039230 -7.622795 38,000 30 490 0
2018-07-12 05:52:03 GMT 34.033768 -7.626698 38,000 30 490 0
2018-07-12 05:51:53 GMT 34.014091 -7.640762 38,000 30 489 0
2018-07-12 05:51:43 GMT 33.993988 -7.655060 38,000 30 490 0
2018-07-12 05:51:35 GMT 33.978199 -7.666340 37,975 30 490 0
2018-07-12 05:51:32 GMT 33.972519 -7.670345 37,975 30 490 0
2018-07-12 05:51:25 GMT 33.958088 -7.680645 38,000 30 490 0
2018-07-12 05:51:22 GMT 33.952969 -7.684250 38,000 30 490 0
2018-07-12 05:51:15 GMT 33.938725 -7.694378 38,000 30 490 0
2018-07-12 05:51:11 GMT 33.932068 -7.699127 38,000 30 491 0
2018-07-12 05:51:04 GMT 33.916798 -7.709942 38,000 30 491 0
2018-07-12 05:51:01 GMT 33.912094 -7.713261 38,000 30 491 0
2018-07-12 05:50:51 GMT 33.891750 -7.727737 37,975 30 491 0
2018-07-12 05:50:41 GMT 33.871765 -7.741886 38,000 30 491 0
2018-07-12 05:50:31 GMT 33.851624 -7.756176 38,000 30 491 0
2018-07-12 05:50:23 GMT 33.837112 -7.766493 38,000 30 491 0
2018-07-12 05:50:20 GMT 33.831234 -7.770653 38,000 30 491 0
2018-07-12 05:50:13 GMT 33.817127 -7.780609 38,000 30 492 0
2018-07-12 05:50:09 GMT 33.810837 -7.785047 38,000 30 492 0
2018-07-12 05:50:02 GMT 33.796921 -7.794912 38,000 30 492 0
2018-07-12 05:49:59 GMT 33.789848 -7.799892 38,000 30 492 0
2018-07-12 05:49:52 GMT 33.777092 -7.808876 38,000 30 492 0
2018-07-12 05:49:48 GMT 33.769455 -7.814250 38,000 30 491 -64
2018-07-12 05:49:42 GMT 33.757076 -7.822952 38,000 30 492 0
2018-07-12 05:49:39 GMT 33.749210 -7.828503 38,000 30 491 0
2018-07-12 05:49:31 GMT 33.736267 -7.837624 38,000 30 491 0
2018-07-12 05:49:28 GMT 33.728634 -7.843037 38,000 30 491 0
2018-07-12 05:49:22 GMT 33.717041 -7.851189 38,000 30 492 0
2018-07-12 05:49:18 GMT 33.709167 -7.856682 38,000 30 492 0
2018-07-12 05:49:11 GMT 33.695675 -7.866211 38,000 30 492 0
2018-07-12 05:49:07 GMT 33.688225 -7.871475 38,000 30 492 0
2018-07-12 05:49:01 GMT 33.676029 -7.880058 38,000 30 491 0
2018-07-12 05:48:56 GMT 33.667007 -7.886390 38,000 30 491 0
2018-07-12 05:48:51 GMT 33.656242 -7.893963 38,000 30 491 0
2018-07-12 05:48:47 GMT 33.647587 -7.900028 38,000 30 491 0
2018-07-12 05:48:40 GMT 33.635853 -7.908325 38,000 30 491 0
2018-07-12 05:48:36 GMT 33.627411 -7.914248 38,000 30 490 0
2018-07-12 05:48:25 GMT 33.606247 -7.929153 38,000 30 490 0
2018-07-12 05:48:19 GMT 33.593307 -7.938239 38,000 30 490 0
2018-07-12 05:48:15 GMT 33.585480 -7.943732 38,000 30 490 0
2018-07-12 05:48:05 GMT 33.565933 -7.957521 38,000 30 491 0
2018-07-12 05:47:55 GMT 33.545197 -7.972207 38,000 30 491 0
2018-07-12 05:47:47 GMT 33.531113 -7.982184 38,000 30 490 0
2018-07-12 05:47:44 GMT 33.525433 -7.986220 38,000 30 491 -64
2018-07-12 05:47:37 GMT 33.509838 -7.997318 38,000 30 491 0
2018-07-12 05:47:33 GMT 33.504776 -8.000903 38,000 30 491 0
2018-07-12 05:47:27 GMT 33.493057 -8.009253 38,000 30 490 0
2018-07-12 05:47:24 GMT 33.484818 -8.015021 38,000 30 490 0
2018-07-12 05:47:17 GMT 33.472687 -8.023590 38,000 30 490 64
2018-07-12 05:47:13 GMT 33.465054 -8.028932 37,975 30 490 64
2018-07-12 05:47:05 GMT 33.449413 -8.039974 37,975 30 490 0
2018-07-12 05:47:02 GMT 33.444305 -8.043530 37,975 30 490 0
2018-07-12 05:46:53 GMT 33.423763 -8.057967 38,000 30 491 0
2018-07-12 05:46:46 GMT 33.412994 -8.065558 37,975 30 490 0
2018-07-12 05:46:42 GMT 33.404022 -8.071875 38,000 30 490 0
2018-07-12 05:46:36 GMT 33.391872 -8.080388 38,000 30 490 0
2018-07-12 05:46:31 GMT 33.383057 -8.086597 38,000 30 490 0
2018-07-12 05:46:25 GMT 33.371704 -8.094562 38,000 30 490 0
2018-07-12 05:46:21 GMT 33.363464 -8.100330 37,975 30 490 0
2018-07-12 05:46:15 GMT 33.351746 -8.108569 38,000 30 490 0
2018-07-12 05:46:11 GMT 33.343086 -8.114636 38,000 30 490 0
2018-07-12 05:46:05 GMT 33.332520 -8.122028 38,000 30 490 0
2018-07-12 05:46:01 GMT 33.322540 -8.129004 38,000 30 490 0
2018-07-12 05:45:53 GMT 33.308823 -8.138571 38,000 30 490 0
2018-07-12 05:45:50 GMT 33.301987 -8.143396 38,000 30 490 0
2018-07-12 05:45:44 GMT 33.290436 -8.151463 38,000 30 490 0
2018-07-12 05:45:39 GMT 33.281822 -8.157461 38,000 30 490 0
2018-07-12 05:45:35 GMT 33.272606 -8.163851 38,000 30 490 0
2018-07-12 05:45:30 GMT 33.261852 -8.171362 38,000 30 489 0
2018-07-12 05:45:23 GMT 33.248932 -8.180420 38,000 30 489 0
2018-07-12 05:45:19 GMT 33.241325 -8.185711 38,000 30 488 -64
2018-07-12 05:45:14 GMT 33.231781 -8.192382 38,000 30 488 0
2018-07-12 05:45:09 GMT 33.221237 -8.199756 38,000 30 488 0
2018-07-12 05:45:04 GMT 33.212036 -8.206128 38,000 30 488 0
2018-07-12 05:44:58 GMT 33.200127 -8.214410 38,000 30 488 0
2018-07-12 05:44:53 GMT 33.190979 -8.220795 38,000 30 487 0
2018-07-12 05:44:48 GMT 33.180038 -8.228375 38,000 30 487 0
2018-07-12 05:44:43 GMT 33.171310 -8.234477 38,000 30 487 0
2018-07-12 05:44:37 GMT 33.159210 -8.242877 38,000 30 487 0
2018-07-12 05:44:33 GMT 33.151978 -8.247876 38,000 30 485 0
2018-07-12 05:44:26 GMT 33.139141 -8.256842 38,000 30 486 0
2018-07-12 05:44:16 GMT 33.118744 -8.271057 38,000 30 486 0
2018-07-12 05:44:05 GMT 33.098328 -8.285284 38,000 30 485 0
2018-07-12 05:44:02 GMT 33.091751 -8.289857 38,000 30 479 0
2018-07-12 05:43:55 GMT 33.078186 -8.299347 38,000 30 485 0
2018-07-12 05:43:52 GMT 33.072338 -8.303366 38,000 30 485 0
2018-07-12 05:43:44 GMT 33.058002 -8.313343 38,000 30 485 0
2018-07-12 05:43:41 GMT 33.050648 -8.318500 38,000 30 484 0
2018-07-12 05:43:34 GMT 33.038452 -8.326923 38,000 30 484 0
2018-07-12 05:43:31 GMT 33.031281 -8.331897 38,000 30 484 0
2018-07-12 05:43:24 GMT 33.018311 -8.340875 38,000 30 484 0
2018-07-12 05:43:20 GMT 33.011353 -8.345709 38,000 30 483 0
2018-07-12 05:43:14 GMT 32.998226 -8.354822 38,000 30 482 0
2018-07-12 05:43:11 GMT 32.992401 -8.358783 38,000 30 482 0
2018-07-12 05:43:04 GMT 32.978302 -8.368561 38,000 30 482 0
2018-07-12 05:42:53 GMT 32.957867 -8.382680 38,000 30 481 0
2018-07-12 05:42:48 GMT 32.948044 -8.389463 38,000 30 481 0
2018-07-12 05:42:42 GMT 32.938221 -8.396245 38,000 30 481 0
2018-07-12 05:42:39 GMT 32.930740 -8.401465 38,000 30 479 0
2018-07-12 05:42:33 GMT 32.918251 -8.410090 38,000 30 480 0
2018-07-12 05:42:22 GMT 32.898834 -8.423492 38,000 30 480 0
2018-07-12 05:42:11 GMT 32.878448 -8.437612 38,000 30 480 0
2018-07-12 05:42:01 GMT 32.858479 -8.451457 38,000 30 480 0
2018-07-12 05:41:58 GMT 32.852142 -8.455792 38,000 30 480 0
2018-07-12 05:41:50 GMT 32.838322 -8.465358 38,000 30 480 0
2018-07-12 05:41:46 GMT 32.830639 -8.470683 37,975 30 480 0
2018-07-12 05:41:40 GMT 32.818722 -8.478867 37,975 30 479 0
2018-07-12 05:41:30 GMT 32.798752 -8.492600 38,000 30 479 0
2018-07-12 05:41:25 GMT 32.789154 -8.499243 38,000 30 479 0
2018-07-12 05:41:19 GMT 32.778809 -8.506384 38,000 30 479 0
2018-07-12 05:41:10 GMT 32.759216 -8.519843 37,975 30 479 0
2018-07-12 05:40:59 GMT 32.739395 -8.533406 37,975 30 479 0
2018-07-12 05:40:55 GMT 32.732666 -8.538025 38,000 30 479 0
2018-07-12 05:40:49 GMT 32.719437 -8.547144 38,000 30 480 -64
2018-07-12 05:40:39 GMT 32.699268 -8.561040 38,000 30 479 0
2018-07-12 05:40:28 GMT 32.679474 -8.574664 38,000 30 479 0
2018-07-12 05:40:18 GMT 32.659885 -8.588114 38,000 30 479 0
2018-07-12 05:40:08 GMT 32.639915 -8.601847 38,000 30 479 0
2018-07-12 05:39:57 GMT 32.619713 -8.615692 37,975 30 480 0
2018-07-12 05:39:52 GMT 32.610306 -8.622180 37,975 30 480 0
2018-07-12 05:39:47 GMT 32.599182 -8.629871 37,975 30 480 0
2018-07-12 05:39:36 GMT 32.579361 -8.643549 37,975 30 481 -64
2018-07-12 05:39:25 GMT 32.559723 -8.657062 38,000 30 481 0
2018-07-12 05:39:22 GMT 32.553188 -8.661543 37,975 30 481 0
2018-07-12 05:39:16 GMT 32.539719 -8.670850 37,975 30 481 0
2018-07-12 05:39:05 GMT 32.519485 -8.684802 38,000 30 481 0
2018-07-12 05:38:54 GMT 32.499847 -8.698260 38,000 30 482 0
2018-07-12 05:38:44 GMT 32.479961 -8.711878 38,000 30 481 0
2018-07-12 05:38:34 GMT 32.460037 -8.725499 37,975 30 482 0
2018-07-12 05:38:23 GMT 32.438004 -8.740503 38,000 29 482 0
2018-07-12 05:38:12 GMT 32.417450 -8.754456 38,000 29 483 0
2018-07-12 05:38:02 GMT 32.398216 -8.767426 38,000 29 483 0
2018-07-12 05:37:51 GMT 32.377827 -8.781271 38,000 29 484 0
2018-07-12 05:37:41 GMT 32.357437 -8.795050 38,000 29 484 0
2018-07-12 05:37:31 GMT 32.337982 -8.808234 38,000 29 485 0
2018-07-12 05:37:21 GMT 32.317108 -8.822351 38,000 29 486 0
2018-07-12 05:37:09 GMT 32.296280 -8.836523 38,000 30 486 0
2018-07-12 05:37:00 GMT 32.276993 -8.849655 38,000 29 486 0
2018-07-12 05:36:50 GMT 32.256912 -8.863330 37,975 29 486 -64
2018-07-12 05:36:39 GMT 32.236446 -8.877233 38,000 30 486 0
2018-07-12 05:36:29 GMT 32.216755 -8.890630 38,000 30 487 -64
2018-07-12 05:36:19 GMT 32.196259 -8.904584 38,000 30 486 0
2018-07-12 05:36:08 GMT 32.175934 -8.918372 38,000 30 487 0
2018-07-12 05:35:58 GMT 32.156250 -8.931830 38,000 30 487 0
2018-07-12 05:35:47 GMT 32.135147 -8.946167 38,000 30 487 -64
2018-07-12 05:35:37 GMT 32.115273 -8.959687 38,000 30 487 0
2018-07-12 05:35:27 GMT 32.094929 -8.973476 38,000 29 486 -64
2018-07-12 05:35:16 GMT 32.074219 -8.987476 38,000 29 486 576
2018-07-12 05:35:05 GMT 32.054150 -9.001054 37,875 29 485 896
2018-07-12 05:34:55 GMT 32.033707 -9.014886 37,700 29 485 1088
2018-07-12 05:34:45 GMT 32.013836 -9.028295 37,525 29 485 1088
2018-07-12 05:34:34 GMT 31.991226 -9.043506 37,325 29 485 1088
2018-07-12 05:34:23 GMT 31.971130 -9.057019 37,150 29 485 1024
2018-07-12 05:34:13 GMT 31.951584 -9.070093 36,975 29 485 1088
2018-07-12 05:34:03 GMT 31.931305 -9.083716 36,800 29 485 1024
2018-07-12 05:33:51 GMT 31.909838 -9.098137 36,600 29 485 1152
2018-07-12 05:33:41 GMT 31.890518 -9.111072 36,400 29 485 1408
2018-07-12 05:33:31 GMT 31.869827 -9.124969 36,150 29 487 1536
2018-07-12 05:33:20 GMT 31.849459 -9.138663 35,900 29 488 1536
2018-07-12 05:33:10 GMT 31.828857 -9.152600 35,650 29 490 1600
2018-07-12 05:32:59 GMT 31.807980 -9.166633 35,375 29 491 1536
2018-07-12 05:32:50 GMT 31.786892 -9.180927 35,125 30 492 1536
2018-07-12 05:32:38 GMT 31.766968 -9.194426 34,875 30 493 1472
2018-07-12 05:32:29 GMT 31.747370 -9.207642 34,650 29 493 1344
2018-07-12 05:32:19 GMT 31.726181 -9.221892 34,425 29 492 1280
2018-07-12 05:32:07 GMT 31.704355 -9.236426 34,200 29 492 1280
2018-07-12 05:31:58 GMT 31.685734 -9.248840 34,025 29 492 1344
2018-07-12 05:31:47 GMT 31.664932 -9.262713 33,775 29 491 1344
2018-07-12 05:31:35 GMT 31.641586 -9.278277 33,525 29 491 1536

Making use of Plane Finder data

You are free to use the raw flight data, aircraft information and images provided in this report for your own purposes provided the data is correctly attributed to Plane Finder. We ask that you please credit Plane Finder and link to planefinder.net in close proximity to the content.

Optionally one of the following logos (no smaller then 150x24px) can be used and must link to planefinder.net

Embedding the Plane Finder map

You are welcome to embed the Plane Finder playback map on your website to offer visitors a more interactive experience. We suggest using the following HTML code:

<iframe src="//planefinder.net/data/report/TB4455-OO-JAA-7700-squawk-2018-07-12/map" width="800" height="600" seamless="seamless"></iframe>

Where our data comes from

Plane Finder has a global network of data feeds and antenna radars that receive data broadcast directly from aircraft. The primary technologies used are ADS-B and MLAT. We also show feeds from the FAA and a FLARM glider feed.

Click here to find out more about the Plane Finder network.

How we collect our data